Wetterdaten: Dienstag, 12.02.2019
Datum Zeit Temp. Aussen Temp. o. S. +5cm Feuchte Auss Luftdruck Regen Sonnenschein Regendauer Solar Windben Empfang
12.02.2019 00:00 1,1 C 0,6 C 0,0 C 94 % 1028,3 hPa 0,0 l/m 0 min 0 min 0 W/m 6,4 km/h (2 Bft) 97,87 %
12.02.2019 00:02 1,1 C 0,6 C 0,0 C 94 % 1028,3 hPa 0,0 l/m 0 min 0 min 0 W/m 6,4 km/h (2 Bft) 95,00 %
12.02.2019 00:04 1,2 C 0,6 C 0,0 C 94 % 1028,3 hPa 0,0 l/m 0 min 0 min 0 W/m 6,4 km/h (2 Bft) 95,74 %
12.02.2019 00:07 1,2 C 0,6 C 0,0 C 94 % 1028,3 hPa 0,0 l/m 0 min 0 min 0 W/m 9,7 km/h (2 Bft) 95,71 %
12.02.2019 00:08 1,2 C 0,6 C 0,0 C 94 % 1028,3 hPa 0,0 l/m 0 min 0 min 0 W/m 3,2 km/h (1 Bft) 100,00 %
12.02.2019 00:10 1,2 C 0,6 C 0,0 C 94 % 1028,4 hPa 0,0 l/m 0 min 0 min 0 W/m 6,4 km/h (2 Bft) 97,83 %
12.02.2019 00:12 1,2 C 0,0 C 0,0 C 94 % 1028,5 hPa 0,0 l/m 0 min 0 min 0 W/m 6,4 km/h (2 Bft) 95,74 %
12.02.2019 00:14 1,1 C 0,0 C 0,0 C 94 % 1028,6 hPa 0,0 l/m 0 min 0 min 0 W/m 3,2 km/h (1 Bft) 95,74 %
12.02.2019 00:16 1,1 C 0,0 C 0,0 C 94 % 1028,5 hPa 0,0 l/m 0 min 0 min 0 W/m 3,2 km/h (1 Bft) 95,74 %
12.02.2019 00:18 1,1 C 0,0 C -0,6 C 94 % 1028,6 hPa 0,0 l/m 0 min 0 min 0 W/m 3,2 km/h (1 Bft) 97,87 %
12.02.2019 00:20 1,1 C 0,0 C -0,6 C 94 % 1028,5 hPa 0,0 l/m 0 min 0 min 0 W/m 9,7 km/h (2 Bft) 95,74 %
12.02.2019 00:22 1,1 C 0,0 C -0,6 C 94 % 1028,4 hPa 0,0 l/m 0 min 0 min 0 W/m 3,2 km/h (1 Bft) 100,00 %
12.02.2019 00:24 1,1 C 0,0 C -0,6 C 94 % 1028,5 hPa 0,0 l/m 0 min 0 min 0 W/m 6,4 km/h (2 Bft) 100,00 %
12.02.2019 00:26 1,1 C 0,0 C -0,6 C 94 % 1028,5 hPa 0,0 l/m 0 min 0 min 0 W/m 6,4 km/h (2 Bft) 97,83 %
12.02.2019 00:28 1,0 C 0,0 C -0,6 C 94 % 1028,6 hPa 0,0 l/m 0 min 0 min 0 W/m 3,2 km/h (1 Bft) 97,87 %
12.02.2019 00:30 1,0 C 0,0 C -0,6 C 94 % 1028,6 hPa 0,0 l/m 0 min 0 min 0 W/m 6,4 km/h (2 Bft) 100,00 %
12.02.2019 00:32 1,0 C 0,0 C -0,6 C 94 % 1028,6 hPa 0,0 l/m 0 min 0 min 0 W/m 3,2 km/h (1 Bft) 100,00 %
12.02.2019 00:34 0,9 C 0,0 C -0,6 C 94 % 1028,5 hPa 0,0 l/m 0 min 0 min 0 W/m 3,2 km/h (1 Bft) 100,00 %
12.02.2019 00:36 0,9 C -0,6 C -0,6 C 94 % 1028,5 hPa 0,0 l/m 0 min 0 min 0 W/m 0,0 km/h (0 Bft) 100,00 %
12.02.2019 00:38 0,9 C 0,0 C -0,6 C 94 % 1028,5 hPa 0,0 l/m 0 min 0 min 0 W/m 0,0 km/h (0 Bft) 100,00 %
12.02.2019 00:40 0,9 C 0,0 C -1,1 C 94 % 1028,6 hPa 0,0 l/m 0 min 0 min 0 W/m 0,0 km/h (0 Bft) 100,00 %
12.02.2019 00:42 0,9 C 0,0 C -1,1 C 94 % 1028,6 hPa 0,0 l/m 0 min 0 min 0 W/m 0,0 km/h (0 Bft) 100,00 %
12.02.2019 00:44 0,8 C 0,0 C -1,1 C 94 % 1028,6 hPa 0,0 l/m 0 min 0 min 0 W/m 0,0 km/h (0 Bft) 97,87 %
12.02.2019 00:46 0,8 C 0,0 C -1,1 C 94 % 1028,7 hPa 0,0 l/m 0 min 0 min 0 W/m 0,0 km/h (0 Bft) 100,00 %
12.02.2019 00:48 0,8 C 0,0 C -0,6 C 94 % 1028,7 hPa 0,0 l/m 0 min 0 min 0 W/m 0,0 km/h (0 Bft) 100,00 %
12.02.2019 00:50 0,8 C 0,0 C -0,6 C 94 % 1028,7 hPa 0,0 l/m 0 min 0 min 0 W/m 9,7 km/h (2 Bft) 97,83 %
12.02.2019 00:52 0,8 C 0,0 C -0,6 C 94 % 1028,8 hPa 0,0 l/m 0 min 0 min 0 W/m 6,4 km/h (2 Bft) 100,00 %
12.02.2019 00:54 0,8 C 0,0 C -0,6 C 94 % 1028,9 hPa 0,0 l/m 0 min 0 min 0 W/m 6,4 km/h (2 Bft) 100,00 %
12.02.2019 00:56 0,8 C 0,0 C -0,6 C 94 % 1028,9 hPa 0,0 l/m 0 min 0 min 0 W/m 6,4 km/h (2 Bft) 100,00 %
12.02.2019 00:58 0,8 C 0,0 C 0,0 C 94 % 1029,0 hPa 0,0 l/m 0 min 0 min 0 W/m 9,7 km/h (2 Bft) 100,00 %
12.02.2019 01:00 0,8 C 0,6 C 0,0 C 94 % 1029,0 hPa 0,0 l/m 0 min 0 min 0 W/m 9,7 km/h (2 Bft) 100,00 %
12.02.2019 01:02 0,9 C 0,6 C 0,0 C 95 % 1029,0 hPa 0,0 l/m 0 min 0 min 0 W/m 6,4 km/h (2 Bft) 97,83 %
12.02.2019 01:04 0,9 C 0,6 C 0,0 C 95 % 1029,1 hPa 0,0 l/m 0 min 0 min 0 W/m 6,4 km/h (2 Bft) 100,00 %
12.02.2019 01:06 0,9 C 0,6 C 0,0 C 95 % 1029,1 hPa 0,0 l/m 0 min 0 min 0 W/m 0,0 km/h (0 Bft) 100,00 %
12.02.2019 01:08 0,9 C 0,6 C 0,0 C 95 % 1029,2 hPa 0,0 l/m 0 min 0 min 0 W/m 3,2 km/h (1 Bft) 100,00 %
12.02.2019 01:10 0,9 C 0,6 C 0,0 C 95 % 1029,1 hPa 0,0 l/m 0 min 0 min 0 W/m 3,2 km/h (1 Bft) 100,00 %
12.02.2019 01:12 0,9 C 0,6 C 0,0 C 95 % 1029,2 hPa 0,0 l/m 0 min 0 min 0 W/m 6,4 km/h (2 Bft) 100,00 %
12.02.2019 01:14 0,9 C 0,0 C 0,0 C 95 % 1029,2 hPa 0,0 l/m 0 min 0 min 0 W/m 3,2 km/h (1 Bft) 100,00 %
12.02.2019 01:16 0,9 C 0,0 C -0,6 C 95 % 1029,2 hPa 0,0 l/m 0 min 0 min 0 W/m 6,4 km/h (2 Bft) 97,87 %
12.02.2019 01:18 0,9 C 0,0 C -0,6 C 95 % 1029,3 hPa 0,0 l/m 0 min 0 min 0 W/m 6,4 km/h (2 Bft) 100,00 %
12.02.2019 01:20 0,9 C 0,0 C -0,6 C 95 % 1029,3 hPa 0,0 l/m 0 min 0 min 0 W/m 6,4 km/h (2 Bft) 95,74 %
12.02.2019 01:22 0,9 C 0,0 C -0,6 C 95 % 1029,3 hPa 0,0 l/m 0 min 0 min 0 W/m 3,2 km/h (1 Bft) 100,00 %
12.02.2019 01:24 0,9 C 0,0 C -0,6 C 95 % 1029,3 hPa 0,0 l/m 0 min 0 min 0 W/m 3,2 km/h (1 Bft) 100,00 %
12.02.2019 01:26 0,9 C 0,0 C -0,6 C 95 % 1029,3 hPa 0,0 l/m 0 min 0 min 0 W/m 6,4 km/h (2 Bft) 97,87 %
12.02.2019 01:28 0,9 C 0,0 C -0,6 C 95 % 1029,3 hPa 0,0 l/m 0 min 0 min 0 W/m 0,0 km/h (0 Bft) 97,87 %
12.02.2019 01:30 0,9 C 0,0 C -0,6 C 95 % 1029,3 hPa 0,0 l/m 0 min 0 min 0 W/m 6,4 km/h (2 Bft) 97,83 %
12.02.2019 01:32 0,9 C 0,0 C -0,6 C 95 % 1029,3 hPa 0,0 l/m 0 min 0 min 0 W/m 3,2 km/h (1 Bft) 97,87 %
12.02.2019 01:34 0,8 C 0,0 C -0,6 C 95 % 1029,4 hPa 0,0 l/m 0 min 0 min 0 W/m 3,2 km/h (1 Bft) 97,87 %
12.02.2019 01:36 0,9 C 0,0 C -0,6 C 95 % 1029,3 hPa 0,0 l/m 0 min 0 min 0 W/m 3,2 km/h (1 Bft) 97,87 %
12.02.2019 01:38 0,8 C 0,6 C -0,6 C 95 % 1029,3 hPa 0,0 l/m 0 min 0 min 0 W/m 3,2 km/h (1 Bft) 97,87 %
12.02.2019 01:40 0,8 C 0,6 C 0,0 C 95 % 1029,3 hPa 0,0 l/m 0 min 0 min 0 W/m 0,0 km/h (0 Bft) 95,74 %
12.02.2019 01:42 0,9 C 0,6 C 0,0 C 95 % 1029,3 hPa 0,0 l/m 0 min 0 min 0 W/m 6,4 km/h (2 Bft) 93,48 %
12.02.2019 01:44 0,9 C 0,6 C 0,0 C 95 % 1029,3 hPa 0,0 l/m 0 min 0 min 0 W/m 6,4 km/h (2 Bft) 95,74 %
12.02.2019 01:46 0,9 C 0,6 C 0,0 C 95 % 1029,4 hPa 0,0 l/m 0 min 0 min 0 W/m 3,2 km/h (1 Bft) 97,87 %
12.02.2019 01:48 0,9 C 0,6 C 0,0 C 95 % 1029,3 hPa 0,0 l/m 0 min 0 min 0 W/m 6,4 km/h (2 Bft) 97,87 %
12.02.2019 01:50 0,9 C 0,6 C 0,0 C 95 % 1029,3 hPa 0,0 l/m 0 min 0 min 0 W/m 0,0 km/h (0 Bft) 95,74 %
12.02.2019 01:52 0,9 C 0,6 C 0,0 C 95 % 1029,4 hPa 0,0 l/m 0 min 0 min 0 W/m 0,0 km/h (0 Bft) 93,62 %
12.02.2019 01:54 0,9 C 0,6 C 0,0 C 95 % 1029,4 hPa 0,0 l/m 0 min 0 min 0 W/m 6,4 km/h (2 Bft) 95,65 %
12.02.2019 01:56 0,9 C 0,6 C 0,0 C 95 % 1029,5 hPa 0,0 l/m 0 min 0 min 0 W/m 6,4 km/h (2 Bft) 93,62 %
12.02.2019 01:58 0,9 C 0,6 C 0,0 C 95 % 1029,6 hPa 0,0 l/m 0 min 0 min 0 W/m 9,7 km/h (2 Bft) 91,49 %
12.02.2019 02:00 0,9 C 0,6 C 0,0 C 95 % 1029,6 hPa 0,0 l/m 0 min 0 min 0 W/m 6,4 km/h (2 Bft) 93,62 %
12.02.2019 02:02 0,9 C 0,0 C 0,0 C 95 % 1029,5 hPa 0,0 l/m 0 min 0 min 0 W/m 3,2 km/h (1 Bft) 91,49 %
12.02.2019 02:04 0,9 C 0,0 C -0,6 C 95 % 1029,5 hPa 0,0 l/m 0 min 0 min 0 W/m 6,4 km/h (2 Bft) 93,62 %
12.02.2019 02:06 0,9 C 0,0 C -0,6 C 95 % 1029,6 hPa 0,0 l/m 0 min 0 min 0 W/m 6,4 km/h (2 Bft) 93,48 %
12.02.2019 02:08 0,9 C 0,0 C -0,6 C 95 % 1029,6 hPa 0,0 l/m 0 min 0 min 0 W/m 6,4 km/h (2 Bft) 93,62 %
12.02.2019 02:10 0,9 C 0,0 C -0,6 C 95 % 1029,6 hPa 0,0 l/m 0 min 0 min 0 W/m 3,2 km/h (1 Bft) 93,62 %
12.02.2019 02:12 0,9 C 0,0 C -0,6 C 95 % 1029,5 hPa 0,0 l/m 0 min 0 min 0 W/m 3,2 km/h (1 Bft) 93,62 %
12.02.2019 02:14 0,9 C 0,0 C -0,6 C 95 % 1029,5 hPa 0,0 l/m 0 min 0 min 0 W/m 3,2 km/h (1 Bft) 93,62 %
12.02.2019 02:16 0,9 C 0,0 C -0,6 C 95 % 1029,5 hPa 0,0 l/m 0 min 0 min 0 W/m 0,0 km/h (0 Bft) 91,49 %
12.02.2019 02:18 0,8 C 0,0 C -0,6 C 95 % 1029,4 hPa 0,0 l/m 0 min 0 min 0 W/m 3,2 km/h (1 Bft) 93,48 %
12.02.2019 02:20 0,8 C 0,0 C -0,6 C 95 % 1029,4 hPa 0,0 l/m 0 min 0 min 0 W/m 3,2 km/h (1 Bft) 93,62 %
12.02.2019 02:22 0,8 C 0,0 C -0,6 C 95 % 1029,5 hPa 0,0 l/m 0 min 0 min 0 W/m 0,0 km/h (0 Bft) 93,62 %
12.02.2019 02:24 0,8 C 0,0 C -0,6 C 95 % 1029,6 hPa 0,0 l/m 0 min 0 min 0 W/m 0,0 km/h (0 Bft) 93,62 %
12.02.2019 02:26 0,8 C 0,0 C -0,6 C 95 % 1029,5 hPa 0,0 l/m 0 min 0 min 0 W/m 6,4 km/h (2 Bft) 93,62 %
12.02.2019 02:28 0,8 C 0,0 C -0,6 C 95 % 1029,5 hPa 0,0 l/m 0 min 0 min 0 W/m 0,0 km/h (0 Bft) 93,48 %
12.02.2019 02:30 0,8 C 0,0 C -0,6 C 95 % 1029,4 hPa 0,0 l/m 0 min 0 min 0 W/m 0,0 km/h (0 Bft) 95,74 %
12.02.2019 02:32 0,8 C 0,0 C -0,6 C 95 % 1029,4 hPa 0,0 l/m 0 min 0 min 0 W/m 0,0 km/h (0 Bft) 97,87 %
12.02.2019 02:34 0,8 C 0,0 C -0,6 C 95 % 1029,5 hPa 0,0 l/m 0 min 0 min 0 W/m 0,0 km/h (0 Bft) 97,87 %
12.02.2019 02:36 0,8 C 0,0 C -0,6 C 95 % 1029,5 hPa 0,0 l/m 0 min 0 min 0 W/m 0,0 km/h (0 Bft) 100,00 %
12.02.2019 02:38 0,8 C 0,0 C -0,6 C 95 % 1029,4 hPa 0,0 l/m 0 min 0 min 0 W/m 0,0 km/h (0 Bft) 97,87 %
12.02.2019 02:40 0,7 C 0,0 C -0,6 C 95 % 1029,4 hPa 0,0 l/m 0 min 0 min 0 W/m 0,0 km/h (0 Bft) 95,65 %
12.02.2019 02:42 0,7 C 0,0 C -0,6 C 95 % 1029,5 hPa 0,0 l/m 0 min 0 min 0 W/m 0,0 km/h (0 Bft) 100,00 %
12.02.2019 02:44 0,7 C 0,0 C -0,6 C 95 % 1029,6 hPa 0,0 l/m 0 min 0 min 0 W/m 0,0 km/h (0 Bft) 100,00 %
12.02.2019 02:46 0,7 C 0,0 C -0,6 C 95 % 1029,5 hPa 0,0 l/m 0 min 0 min 0 W/m 0,0 km/h (0 Bft) 100,00 %
12.02.2019 02:48 0,7 C 0,0 C -0,6 C 95 % 1029,6 hPa 0,0 l/m 0 min 0 min 0 W/m 0,0 km/h (0 Bft) 97,87 %
12.02.2019 02:50 0,7 C 0,0 C -0,6 C 95 % 1029,6 hPa 0,0 l/m 0 min 0 min 0 W/m 0,0 km/h (0 Bft) 97,87 %
12.02.2019 02:52 0,7 C 0,0 C -0,6 C 95 % 1029,6 hPa 0,0 l/m 0 min 0 min 0 W/m 0,0 km/h (0 Bft) 100,00 %
12.02.2019 02:54 0,7 C 0,0 C -0,6 C 95 % 1029,6 hPa 0,0 l/m 0 min 0 min 0 W/m 3,2 km/h (1 Bft) 100,00 %
12.02.2019 02:56 0,7 C 0,0 C -0,6 C 95 % 1029,5 hPa 0,0 l/m 0 min 0 min 0 W/m 3,2 km/h (1 Bft) 100,00 %
12.02.2019 02:58 0,7 C 0,0 C -0,6 C 95 % 1029,6 hPa 0,0 l/m 0 min 0 min 0 W/m 6,4 km/h (2 Bft) 100,00 %
12.02.2019 03:00 0,7 C 0,0 C -0,6 C 95 % 1029,6 hPa 0,0 l/m 0 min 0 min 0 W/m 6,4 km/h (2 Bft) 100,00 %
12.02.2019 03:02 0,6 C 0,0 C -0,6 C 95 % 1029,6 hPa 0,0 l/m 0 min 0 min 0 W/m 6,4 km/h (2 Bft) 100,00 %
12.02.2019 03:04 0,6 C 0,0 C -0,6 C 95 % 1029,7 hPa 0,0 l/m 0 min 0 min 0 W/m 3,2 km/h (1 Bft) 100,00 %
12.02.2019 03:06 0,6 C 0,0 C -0,6 C 95 % 1029,7 hPa 0,0 l/m 0 min 0 min 0 W/m 3,2 km/h (1 Bft) 100,00 %
12.02.2019 03:08 0,6 C 0,0 C -0,6 C 95 % 1029,7 hPa 0,0 l/m 0 min 0 min 0 W/m 9,7 km/h (2 Bft) 97,87 %
12.02.2019 03:10 0,6 C 0,0 C -0,6 C 95 % 1029,7 hPa 0,0 l/m 0 min 0 min 0 W/m 3,2 km/h (1 Bft) 100,00 %
12.02.2019 03:12 0,6 C 0,0 C -0,6 C 95 % 1029,6 hPa 0,0 l/m 0 min 0 min 0 W/m 3,2 km/h (1 Bft) 100,00 %
12.02.2019 03:14 0,6 C 0,0 C -0,6 C 95 % 1029,8 hPa 0,0 l/m 0 min 0 min 0 W/m 3,2 km/h (1 Bft) 100,00 %
12.02.2019 03:16 0,6 C 0,0 C -0,6 C 95 % 1029,7 hPa 0,0 l/m 0 min 0 min 0 W/m 3,2 km/h (1 Bft) 100,00 %
12.02.2019 03:18 0,6 C 0,0 C -0,6 C 96 % 1029,7 hPa 0,0 l/m 0 min 0 min 0 W/m 3,2 km/h (1 Bft) 100,00 %
12.02.2019 03:20 0,6 C 0,0 C -0,6 C 96 % 1029,7 hPa 0,0 l/m 0 min 0 min 0 W/m 6,4 km/h (2 Bft) 100,00 %
12.02.2019 03:22 0,6 C 0,0 C -0,6 C 96 % 1029,7 hPa 0,0 l/m 0 min 0 min 0 W/m 6,4 km/h (2 Bft) 100,00 %
12.02.2019 03:24 0,6 C 0,0 C -0,6 C 96 % 1029,7 hPa 0,0 l/m 0 min 0 min 0 W/m 0,0 km/h (0 Bft) 100,00 %
12.02.2019 03:26 0,6 C 0,0 C -0,6 C 96 % 1029,7 hPa 0,0 l/m 0 min 0 min 0 W/m 0,0 km/h (0 Bft) 100,00 %
12.02.2019 03:28 0,6 C 0,0 C -0,6 C 96 % 1029,7 hPa 0,0 l/m 0 min 0 min 0 W/m 0,0 km/h (0 Bft) 100,00 %
12.02.2019 03:30 0,6 C 0,0 C -0,6 C 96 % 1029,7 hPa 0,0 l/m 0 min 0 min 0 W/m 0,0 km/h (0 Bft) 100,00 %
12.02.2019 03:32 0,6 C 0,0 C -0,6 C 96 % 1029,6 hPa 0,0 l/m 0 min 0 min 0 W/m 0,0 km/h (0 Bft) 97,87 %
12.02.2019 03:34 0,6 C 0,0 C -0,6 C 96 % 1029,7 hPa 0,0 l/m 0 min 0 min 0 W/m 0,0 km/h (0 Bft) 100,00 %
12.02.2019 03:36 0,6 C 0,0 C -0,6 C 96 % 1029,7 hPa 0,0 l/m 0 min 0 min 0 W/m 9,7 km/h (2 Bft) 100,00 %
12.02.2019 03:38 0,6 C 0,0 C -0,6 C 96 % 1029,7 hPa 0,0 l/m 0 min 0 min 0 W/m 3,2 km/h (1 Bft) 100,00 %
12.02.2019 03:40 0,6 C 0,0 C -0,6 C 96 % 1029,7 hPa 0,0 l/m 0 min 0 min 0 W/m 6,4 km/h (2 Bft) 100,00 %
12.02.2019 03:42 0,6 C 0,0 C -0,6 C 96 % 1029,7 hPa 0,0 l/m 0 min 0 min 0 W/m 6,4 km/h (2 Bft) 100,00 %
12.02.2019 03:44 0,6 C 0,0 C -0,6 C 96 % 1029,6 hPa 0,0 l/m 0 min 0 min 0 W/m 3,2 km/h (1 Bft) 97,87 %
12.02.2019 03:46 0,6 C 0,0 C -0,6 C 96 % 1029,6 hPa 0,0 l/m 0 min 0 min 0 W/m 0,0 km/h (0 Bft) 100,00 %
12.02.2019 03:48 0,6 C 0,0 C -0,6 C 96 % 1029,7 hPa 0,0 l/m 0 min 0 min 0 W/m 0,0 km/h (0 Bft) 100,00 %
12.02.2019 03:50 0,6 C 0,0 C -0,6 C 96 % 1029,6 hPa 0,0 l/m 0 min 0 min 0 W/m 0,0 km/h (0 Bft) 100,00 %
12.02.2019 03:52 0,6 C 0,0 C -0,6 C 96 % 1029,7 hPa 0,0 l/m 0 min 0 min 0 W/m 3,2 km/h (1 Bft) 97,87 %
12.02.2019 03:54 0,6 C 0,0 C -0,6 C 96 % 1029,7 hPa 0,0 l/m 0 min 0 min 0 W/m 6,4 km/h (2 Bft) 100,00 %
12.02.2019 03:56 0,6 C 0,0 C -0,6 C 96 % 1029,7 hPa 0,0 l/m 0 min 0 min 0 W/m 6,4 km/h (2 Bft) 100,00 %
12.02.2019 03:58 0,6 C 0,0 C -0,6 C 96 % 1029,8 hPa 0,0 l/m 0 min 0 min 0 W/m 6,4 km/h (2 Bft) 100,00 %
12.02.2019 04:00 0,6 C 0,0 C -0,6 C 96 % 1029,8 hPa 0,0 l/m 0 min 0 min 0 W/m 3,2 km/h (1 Bft) 97,87 %
12.02.2019 04:05 0,5 C 0,0 C -0,6 C 96 % 1029,9 hPa 0,0 l/m 0 min 0 min 0 W/m 6,4 km/h (2 Bft) 100,00 %
12.02.2019 04:06 0,5 C 0,0 C -0,6 C 96 % 1029,9 hPa 0,0 l/m 0 min 0 min 0 W/m 3,2 km/h (1 Bft) 100,00 %
12.02.2019 04:08 0,5 C 0,0 C -0,6 C 96 % 1029,9 hPa 0,0 l/m 0 min 0 min 0 W/m 6,4 km/h (2 Bft) 100,00 %
12.02.2019 04:10 0,5 C 0,0 C -0,6 C 96 % 1029,8 hPa 0,0 l/m 0 min 0 min 0 W/m 3,2 km/h (1 Bft) 96,30 %
12.02.2019 04:12 0,5 C 0,0 C -0,6 C 96 % 1029,8 hPa 0,0 l/m 0 min 0 min 0 W/m 6,4 km/h (2 Bft) 97,87 %
12.02.2019 04:14 0,5 C 0,0 C -0,6 C 96 % 1029,8 hPa 0,0 l/m 0 min 0 min 0 W/m 6,4 km/h (2 Bft) 97,87 %
12.02.2019 04:16 0,5 C 0,0 C -0,6 C 96 % 1029,8 hPa 0,0 l/m 0 min 0 min 0 W/m 6,4 km/h (2 Bft) 93,62 %
12.02.2019 04:18 0,5 C 0,0 C -0,6 C 96 % 1029,9 hPa 0,0 l/m 0 min 0 min 0 W/m 6,4 km/h (2 Bft) 97,87 %
12.02.2019 04:20 0,5 C 0,0 C -0,6 C 96 % 1029,8 hPa 0,0 l/m 0 min 0 min 0 W/m 3,2 km/h (1 Bft) 97,87 %
12.02.2019 04:22 0,5 C 0,0 C -0,6 C 96 % 1029,9 hPa 0,0 l/m 0 min 0 min 0 W/m 3,2 km/h (1 Bft) 95,65 %
12.02.2019 04:24 0,6 C 0,0 C -0,6 C 96 % 1029,8 hPa 0,0 l/m 0 min 0 min 0 W/m 0,0 km/h (0 Bft) 97,87 %
12.02.2019 04:26 0,6 C 0,0 C -0,6 C 96 % 1029,9 hPa 0,0 l/m 0 min 0 min 0 W/m 6,4 km/h (2 Bft) 95,74 %
12.02.2019 04:28 0,6 C 0,0 C -0,6 C 96 % 1029,9 hPa 0,0 l/m 0 min 0 min 0 W/m 9,7 km/h (2 Bft) 95,74 %
12.02.2019 04:30 0,6 C 0,0 C -0,6 C 96 % 1029,9 hPa 0,0 l/m 0 min 0 min 0 W/m 9,7 km/h (2 Bft) 97,87 %
12.02.2019 04:32 0,6 C 0,0 C -0,6 C 96 % 1029,9 hPa 0,0 l/m 0 min 0 min 0 W/m 6,4 km/h (2 Bft) 95,65 %
12.02.2019 04:34 0,5 C 0,0 C -0,6 C 96 % 1029,9 hPa 0,0 l/m 0 min 0 min 0 W/m 6,4 km/h (2 Bft) 95,24 %
12.02.2019 04:36 0,6 C 0,0 C -0,6 C 96 % 1029,9 hPa 0,0 l/m 0 min 0 min 0 W/m 6,4 km/h (2 Bft) 96,61 %
12.02.2019 04:38 0,6 C 0,0 C -0,6 C 96 % 1029,9 hPa 0,0 l/m 0 min 0 min 0 W/m 3,2 km/h (1 Bft) 95,12 %
12.02.2019 04:40 0,5 C 0,0 C -0,6 C 96 % 1029,9 hPa 0,0 l/m 0 min 0 min 0 W/m 3,2 km/h (1 Bft) 93,62 %
12.02.2019 04:42 0,5 C 0,0 C -0,6 C 96 % 1029,9 hPa 0,0 l/m 0 min 0 min 0 W/m 3,2 km/h (1 Bft) 95,65 %
12.02.2019 04:44 0,5 C 0,0 C -0,6 C 96 % 1029,9 hPa 0,0 l/m 0 min 0 min 0 W/m 3,2 km/h (1 Bft) 95,74 %
12.02.2019 04:46 0,5 C 0,0 C -0,6 C 96 % 1029,8 hPa 0,0 l/m 0 min 0 min 0 W/m 6,4 km/h (2 Bft) 95,74 %
12.02.2019 04:48 0,5 C 0,0 C -0,6 C 96 % 1029,9 hPa 0,0 l/m 0 min 0 min 0 W/m 6,4 km/h (2 Bft) 93,62 %
12.02.2019 04:50 0,5 C -0,6 C -0,6 C 96 % 1029,9 hPa 0,0 l/m 0 min 0 min 0 W/m 6,4 km/h (2 Bft) 95,74 %
12.02.2019 04:52 0,5 C -0,6 C -0,6 C 96 % 1029,9 hPa 0,0 l/m 0 min 0 min 0 W/m 9,7 km/h (2 Bft) 97,87 %
12.02.2019 04:54 0,5 C -0,6 C -0,6 C 96 % 1029,9 hPa 0,0 l/m 0 min 0 min 0 W/m 3,2 km/h (1 Bft) 97,83 %
12.02.2019 04:56 0,5 C -0,6 C -0,6 C 96 % 1030,0 hPa 0,0 l/m 0 min 0 min 0 W/m 3,2 km/h (1 Bft) 97,87 %
12.02.2019 04:58 0,5 C -0,6 C -1,1 C 96 % 1029,9 hPa 0,0 l/m 0 min 0 min 0 W/m 3,2 km/h (1 Bft) 95,74 %
12.02.2019 05:00 0,5 C -0,6 C -1,1 C 96 % 1030,0 hPa 0,0 l/m 0 min 0 min 0 W/m 3,2 km/h (1 Bft) 93,62 %
12.02.2019 05:02 0,5 C -0,6 C -1,1 C 96 % 1029,9 hPa 0,0 l/m 0 min 0 min 0 W/m 6,4 km/h (2 Bft) 95,74 %
12.02.2019 05:04 0,4 C -0,6 C -1,1 C 96 % 1030,0 hPa 0,0 l/m 0 min 0 min 0 W/m 3,2 km/h (1 Bft) 95,74 %
12.02.2019 05:05 0,4 C -0,6 C -1,1 C 96 % 1029,9 hPa 0,0 l/m 0 min 0 min 0 W/m 6,4 km/h (2 Bft) 98,25 %
12.02.2019 05:10 0,4 C -0,6 C -1,1 C 96 % 1030,1 hPa 0,0 l/m 0 min 0 min 0 W/m 6,4 km/h (2 Bft) 99,12 %
12.02.2019 05:12 0,4 C -0,6 C -1,1 C 96 % 1030,0 hPa 0,0 l/m 0 min 0 min 0 W/m 3,2 km/h (1 Bft) 95,00 %
12.02.2019 05:14 0,4 C -0,6 C -1,1 C 96 % 1030,1 hPa 0,0 l/m 0 min 0 min 0 W/m 3,2 km/h (1 Bft) 100,00 %
12.02.2019 05:19 0,3 C -0,6 C -1,1 C 96 % 1030,1 hPa 0,0 l/m 0 min 0 min 0 W/m 3,2 km/h (1 Bft) 60,00 %
12.02.2019 05:20 0,3 C -0,6 C -1,1 C 96 % 1030,1 hPa 0,0 l/m 0 min 0 min 0 W/m 0,0 km/h (0 Bft) 100,00 %
12.02.2019 05:22 0,3 C -0,6 C -1,1 C 96 % 1030,1 hPa 0,0 l/m 0 min 0 min 0 W/m 0,0 km/h (0 Bft) 97,87 %
12.02.2019 05:24 0,3 C -0,6 C -1,1 C 96 % 1030,1 hPa 0,0 l/m 0 min 0 min 0 W/m 3,2 km/h (1 Bft) 97,87 %
12.02.2019 05:26 0,3 C -0,6 C -1,1 C 96 % 1030,1 hPa 0,0 l/m 0 min 0 min 0 W/m 3,2 km/h (1 Bft) 95,74 %
12.02.2019 05:28 0,3 C -0,6 C -1,1 C 96 % 1030,1 hPa 0,0 l/m 0 min 0 min 0 W/m 3,2 km/h (1 Bft) 95,12 %
12.02.2019 05:30 0,3 C -0,6 C -1,1 C 96 % 1030,2 hPa 0,0 l/m 0 min 0 min 0 W/m 3,2 km/h (1 Bft) 97,83 %
12.02.2019 05:32 0,3 C -0,6 C -1,1 C 96 % 1030,2 hPa 0,0 l/m 0 min 0 min 0 W/m 3,2 km/h (1 Bft) 97,87 %
12.02.2019 05:34 0,3 C -0,6 C -1,1 C 96 % 1030,3 hPa 0,0 l/m 0 min 0 min 0 W/m 3,2 km/h (1 Bft) 97,87 %
12.02.2019 05:36 0,3 C -0,6 C -1,1 C 96 % 1030,2 hPa 0,0 l/m 0 min 0 min 0 W/m 3,2 km/h (1 Bft) 98,31 %
12.02.2019 05:38 0,2 C -0,6 C -1,1 C 96 % 1030,2 hPa 0,0 l/m 0 min 0 min 0 W/m 6,4 km/h (2 Bft) 97,14 %
12.02.2019 05:40 0,2 C -0,6 C -1,1 C 96 % 1030,2 hPa 0,0 l/m 0 min 0 min 0 W/m 3,2 km/h (1 Bft) 98,08 %
12.02.2019 05:42 0,2 C -0,6 C -1,1 C 96 % 1030,2 hPa 0,0 l/m 0 min 0 min 0 W/m 3,2 km/h (1 Bft) 97,87 %
12.02.2019 05:44 0,2 C -0,6 C -1,1 C 96 % 1030,2 hPa 0,0 l/m 0 min 0 min 0 W/m 3,2 km/h (1 Bft) 97,87 %
12.02.2019 05:46 0,2 C -0,6 C -1,1 C 96 % 1030,2 hPa 0,0 l/m 0 min 0 min 0 W/m 3,2 km/h (1 Bft) 97,56 %
12.02.2019 05:48 0,2 C -0,6 C -1,1 C 96 % 1030,2 hPa 0,0 l/m 0 min 0 min 0 W/m 3,2 km/h (1 Bft) 97,87 %
12.02.2019 05:50 0,2 C -0,6 C -1,1 C 96 % 1030,2 hPa 0,0 l/m 0 min 0 min 0 W/m 3,2 km/h (1 Bft) 97,87 %
12.02.2019 05:52 0,2 C -0,6 C -1,1 C 96 % 1030,1 hPa 0,0 l/m 0 min 0 min 0 W/m 3,2 km/h (1 Bft) 97,87 %
12.02.2019 05:54 0,2 C -0,6 C -1,1 C 96 % 1030,2 hPa 0,0 l/m 0 min 0 min 0 W/m 3,2 km/h (1 Bft) 97,83 %
12.02.2019 05:56 0,2 C -0,6 C -1,1 C 96 % 1030,2 hPa 0,0 l/m 0 min 0 min 0 W/m 3,2 km/h (1 Bft) 97,87 %
12.02.2019 05:58 0,2 C -0,6 C -1,1 C 96 % 1030,2 hPa 0,0 l/m 0 min 0 min 0 W/m 3,2 km/h (1 Bft) 95,74 %
12.02.2019 06:00 0,2 C -0,6 C -1,1 C 96 % 1030,2 hPa 0,0 l/m 0 min 0 min 0 W/m 3,2 km/h (1 Bft) 100,00 %
12.02.2019 06:02 0,2 C -0,6 C -1,1 C 96 % 1030,2 hPa 0,0 l/m 0 min 0 min 0 W/m 3,2 km/h (1 Bft) 100,00 %
12.02.2019 06:04 0,2 C -0,6 C -1,1 C 96 % 1030,2 hPa 0,0 l/m 0 min 0 min 0 W/m 6,4 km/h (2 Bft) 97,87 %
12.02.2019 06:07 0,2 C -0,6 C -1,1 C 96 % 1030,1 hPa 0,0 l/m 0 min 0 min 0 W/m 3,2 km/h (1 Bft) 100,00 %
12.02.2019 06:08 0,2 C -0,6 C -1,1 C 96 % 1030,1 hPa 0,0 l/m 0 min 0 min 0 W/m 3,2 km/h (1 Bft) 100,00 %
12.02.2019 06:10 0,2 C -0,6 C -1,1 C 96 % 1030,1 hPa 0,0 l/m 0 min 0 min 0 W/m 3,2 km/h (1 Bft) 97,87 %
12.02.2019 06:12 0,2 C -0,6 C -1,1 C 96 % 1030,1 hPa 0,0 l/m 0 min 0 min 0 W/m 6,4 km/h (2 Bft) 100,00 %
12.02.2019 06:14 0,2 C -0,6 C -1,1 C 96 % 1030,1 hPa 0,0 l/m 0 min 0 min 0 W/m 6,4 km/h (2 Bft) 97,83 %
12.02.2019 06:16 0,2 C -0,6 C -1,1 C 96 % 1030,2 hPa 0,0 l/m 0 min 0 min 0 W/m 3,2 km/h (1 Bft) 100,00 %
12.02.2019 06:18 0,2 C -0,6 C -1,1 C 96 % 1030,2 hPa 0,0 l/m 0 min 0 min 0 W/m 3,2 km/h (1 Bft) 97,87 %
12.02.2019 06:20 0,2 C -0,6 C -1,1 C 96 % 1030,2 hPa 0,0 l/m 0 min 0 min 0 W/m 6,4 km/h (2 Bft) 97,87 %
12.02.2019 06:22 0,2 C -0,6 C -1,1 C 96 % 1030,2 hPa 0,0 l/m 0 min 0 min 0 W/m 6,4 km/h (2 Bft) 100,00 %
12.02.2019 06:24 0,2 C -0,6 C -1,1 C 96 % 1030,2 hPa 0,0 l/m 0 min 0 min 0 W/m 9,7 km/h (2 Bft) 97,87 %
12.02.2019 06:26 0,2 C 0,0 C -0,6 C 96 % 1030,2 hPa 0,0 l/m 0 min 0 min 0 W/m 6,4 km/h (2 Bft) 100,00 %
12.02.2019 06:28 0,2 C -0,6 C -0,6 C 96 % 1030,2 hPa 0,0 l/m 0 min 0 min 0 W/m 3,2 km/h (1 Bft) 97,87 %
12.02.2019 06:30 0,2 C 0,0 C -0,6 C 96 % 1030,2 hPa 0,0 l/m 0 min 0 min 0 W/m 3,2 km/h (1 Bft) 97,87 %
12.02.2019 06:32 0,2 C 0,0 C -0,6 C 96 % 1030,3 hPa 0,0 l/m 0 min 0 min 0 W/m 3,2 km/h (1 Bft) 95,74 %
12.02.2019 06:34 0,2 C 0,0 C -0,6 C 96 % 1030,2 hPa 0,0 l/m 0 min 0 min 0 W/m 3,2 km/h (1 Bft) 95,74 %
12.02.2019 06:36 0,2 C 0,0 C -0,6 C 96 % 1030,2 hPa 0,0 l/m 0 min 0 min 0 W/m 6,4 km/h (2 Bft) 98,28 %
12.02.2019 06:38 0,2 C 0,0 C -0,6 C 96 % 1030,3 hPa 0,0 l/m 0 min 0 min 0 W/m 6,4 km/h (2 Bft) 97,14 %
12.02.2019 06:40 0,2 C 0,0 C -0,6 C 96 % 1030,4 hPa 0,0 l/m 0 min 0 min 0 W/m 3,2 km/h (1 Bft) 97,87 %
12.02.2019 06:42 0,2 C 0,0 C -0,6 C 96 % 1030,3 hPa 0,0 l/m 0 min 0 min 0 W/m 3,2 km/h (1 Bft) 97,87 %
12.02.2019 06:44 0,2 C 0,0 C -0,6 C 96 % 1030,3 hPa 0,0 l/m 0 min 0 min 0 W/m 3,2 km/h (1 Bft) 97,87 %
12.02.2019 06:46 0,2 C 0,0 C -0,6 C 96 % 1030,3 hPa 0,0 l/m 0 min 0 min 0 W/m 6,4 km/h (2 Bft) 97,87 %
12.02.2019 06:48 0,2 C 0,0 C -0,6 C 96 % 1030,3 hPa 0,0 l/m 0 min 0 min 0 W/m 6,4 km/h (2 Bft) 97,87 %
12.02.2019 06:50 0,2 C -0,6 C -1,1 C 96 % 1030,3 hPa 0,0 l/m 0 min 0 min 0 W/m 3,2 km/h (1 Bft) 97,83 %
12.02.2019 06:52 0,2 C -0,6 C -0,6 C 96 % 1030,3 hPa 0,0 l/m 0 min 0 min 0 W/m 9,7 km/h (2 Bft) 97,87 %
12.02.2019 06:54 0,2 C 0,0 C -0,6 C 96 % 1030,4 hPa 0,0 l/m 0 min 0 min 0 W/m 9,7 km/h (2 Bft) 100,00 %
12.02.2019 06:56 0,2 C 0,0 C -0,6 C 96 % 1030,4 hPa 0,0 l/m 0 min 0 min 0 W/m 6,4 km/h (2 Bft) 95,74 %
12.02.2019 06:58 0,2 C 0,0 C -0,6 C 96 % 1030,3 hPa 0,0 l/m 0 min 0 min 0 W/m 6,4 km/h (2 Bft) 97,87 %
12.02.2019 07:00 0,3 C 0,0 C -0,6 C 97 % 1030,3 hPa 0,0 l/m 0 min 0 min 0 W/m 6,4 km/h (2 Bft) 97,87 %
12.02.2019 07:02 0,3 C 0,0 C -0,6 C 97 % 1030,3 hPa 0,0 l/m 0 min 0 min 0 W/m 6,4 km/h (2 Bft) 95,65 %
12.02.2019 07:04 0,3 C 0,0 C -0,6 C 97 % 1030,4 hPa 0,0 l/m 0 min 0 min 0 W/m 3,2 km/h (1 Bft) 97,87 %
12.02.2019 07:06 0,3 C 0,0 C -0,6 C 97 % 1030,3 hPa 0,0 l/m 0 min 0 min 0 W/m 6,4 km/h (2 Bft) 94,92 %
12.02.2019 07:08 0,3 C 0,0 C -0,6 C 97 % 1030,4 hPa 0,0 l/m 0 min 0 min 0 W/m 9,7 km/h (2 Bft) 91,43 %
12.02.2019 07:10 0,3 C 0,0 C -0,6 C 97 % 1030,2 hPa 0,0 l/m 0 min 0 min 0 W/m 6,4 km/h (2 Bft) 95,74 %
12.02.2019 07:12 0,3 C 0,0 C -0,6 C 97 % 1030,3 hPa 0,0 l/m 0 min 0 min 0 W/m 3,2 km/h (1 Bft) 95,65 %
12.02.2019 07:14 0,3 C 0,0 C -0,6 C 97 % 1030,3 hPa 0,0 l/m 0 min 0 min 0 W/m 3,2 km/h (1 Bft) 97,87 %
12.02.2019 07:16 0,3 C 0,0 C -0,6 C 97 % 1030,2 hPa 0,0 l/m 0 min 0 min 0 W/m 6,4 km/h (2 Bft) 95,74 %
12.02.2019 07:18 0,3 C 0,0 C -0,6 C 97 % 1030,2 hPa 0,0 l/m 0 min 0 min 0 W/m 9,7 km/h (2 Bft) 97,87 %
12.02.2019 07:20 0,3 C 0,0 C -0,6 C 97 % 1030,2 hPa 0,0 l/m 0 min 0 min 0 W/m 9,7 km/h (2 Bft) 97,87 %
12.02.2019 07:22 0,4 C 0,0 C -0,6 C 97 % 1030,1 hPa 0,0 l/m 0 min 0 min 0 W/m 6,4 km/h (2 Bft) 97,87 %
12.02.2019 07:24 0,4 C 0,0 C -0,6 C 97 % 1030,2 hPa 0,0 l/m 0 min 0 min 0 W/m 9,7 km/h (2 Bft) 97,83 %
12.02.2019 07:26 0,4 C 0,0 C -0,6 C 97 % 1030,1 hPa 0,0 l/m 0 min 0 min 0 W/m 9,7 km/h (2 Bft) 97,87 %
12.02.2019 07:28 0,4 C 0,0 C -0,6 C 97 % 1030,1 hPa 0,0 l/m 0 min 0 min 0 W/m 6,4 km/h (2 Bft) 97,87 %
12.02.2019 07:30 0,4 C 0,0 C -0,6 C 97 % 1030,2 hPa 0,0 l/m 0 min 0 min 0 W/m 6,4 km/h (2 Bft) 97,87 %
12.02.2019 07:32 0,4 C 0,0 C -0,6 C 97 % 1030,2 hPa 0,0 l/m 0 min 0 min 0 W/m 6,4 km/h (2 Bft) 97,87 %
12.02.2019 07:34 0,4 C 0,0 C -0,6 C 97 % 1030,2 hPa 0,0 l/m 0 min 0 min 0 W/m 6,4 km/h (2 Bft) 95,74 %
12.02.2019 07:36 0,4 C 0,0 C -0,6 C 97 % 1030,2 hPa 0,0 l/m 0 min 0 min 0 W/m 9,7 km/h (2 Bft) 95,65 %
12.02.2019 07:38 0,5 C 0,0 C -0,6 C 97 % 1030,2 hPa 0,0 l/m 0 min 0 min 0 W/m 9,7 km/h (2 Bft) 97,87 %
12.02.2019 07:40 0,5 C 0,0 C -0,6 C 97 % 1030,2 hPa 0,0 l/m 0 min 0 min 0 W/m 6,4 km/h (2 Bft) 97,87 %
12.02.2019 07:42 0,5 C 0,0 C -0,6 C 97 % 1030,3 hPa 0,0 l/m 0 min 0 min 0 W/m 6,4 km/h (2 Bft) 95,74 %
12.02.2019 07:44 0,5 C 0,0 C -0,6 C 97 % 1030,3 hPa 0,0 l/m 0 min 0 min 0 W/m 6,4 km/h (2 Bft) 97,87 %
12.02.2019 07:46 0,5 C 0,0 C -0,6 C 97 % 1030,2 hPa 0,0 l/m 0 min 0 min 0 W/m 6,4 km/h (2 Bft) 95,65 %
12.02.2019 07:48 0,5 C 0,0 C -0,6 C 97 % 1030,3 hPa 0,0 l/m 0 min 0 min 0 W/m 6,4 km/h (2 Bft) 95,74 %
12.02.2019 07:50 0,5 C 0,0 C -0,6 C 97 % 1030,3 hPa 0,0 l/m 0 min 0 min 0 W/m 3,2 km/h (1 Bft) 95,74 %
12.02.2019 07:52 0,5 C 0,0 C -0,6 C 97 % 1030,3 hPa 0,0 l/m 0 min 0 min 0 W/m 6,4 km/h (2 Bft) 97,87 %
12.02.2019 07:54 0,5 C 0,0 C -0,6 C 97 % 1030,3 hPa 0,0 l/m 0 min 0 min 0 W/m 3,2 km/h (1 Bft) 97,87 %
12.02.2019 07:56 0,5 C 0,0 C -0,6 C 97 % 1030,3 hPa 0,0 l/m 0 min 0 min 0 W/m 3,2 km/h (1 Bft) 100,00 %
12.02.2019 07:58 0,5 C 0,0 C -0,6 C 97 % 1030,4 hPa 0,0 l/m 0 min 0 min 0 W/m 6,4 km/h (2 Bft) 100,00 %
12.02.2019 08:00 0,5 C 0,0 C -0,6 C 97 % 1030,3 hPa 0,0 l/m 0 min 0 min 0 W/m 6,4 km/h (2 Bft) 100,00 %
12.02.2019 08:02 0,5 C 0,0 C -0,6 C 97 % 1030,3 hPa 0,0 l/m 0 min 0 min 5 W/m 6,4 km/h (2 Bft) 95,74 %
12.02.2019 08:04 0,5 C 0,0 C -0,6 C 97 % 1030,4 hPa 0,0 l/m 0 min 0 min 7 W/m 3,2 km/h (1 Bft) 100,00 %
12.02.2019 08:06 0,5 C 0,0 C -0,6 C 97 % 1030,5 hPa 0,0 l/m 0 min 0 min 9 W/m 6,4 km/h (2 Bft) 100,00 %
12.02.2019 08:08 0,5 C 0,0 C -0,6 C 97 % 1030,6 hPa 0,0 l/m 0 min 0 min 12 W/m 6,4 km/h (2 Bft) 100,00 %
12.02.2019 08:10 0,5 C 0,0 C -0,6 C 97 % 1030,5 hPa 0,0 l/m 0 min 0 min 14 W/m 6,4 km/h (2 Bft) 93,62 %
12.02.2019 08:12 0,5 C 0,0 C -0,6 C 97 % 1030,5 hPa 0,0 l/m 0 min 0 min 15 W/m 9,7 km/h (2 Bft) 100,00 %
12.02.2019 08:14 0,5 C 0,0 C -0,6 C 97 % 1030,5 hPa 0,0 l/m 0 min 0 min 16 W/m 9,7 km/h (2 Bft) 97,87 %
12.02.2019 08:16 0,5 C 0,6 C 0,0 C 97 % 1030,5 hPa 0,0 l/m 0 min 0 min 18 W/m 0,0 km/h (0 Bft) 100,00 %
12.02.2019 08:18 0,5 C 0,6 C 0,0 C 97 % 1030,4 hPa 0,0 l/m 0 min 0 min 21 W/m 12,9 km/h (3 Bft) 100,00 %
12.02.2019 08:20 0,5 C 0,6 C 0,0 C 97 % 1030,5 hPa 0,0 l/m 0 min 0 min 24 W/m 6,4 km/h (2 Bft) 100,00 %
12.02.2019 08:22 0,5 C 0,6 C 0,0 C 97 % 1030,5 hPa 0,0 l/m 0 min 0 min 26 W/m 6,4 km/h (2 Bft) 97,83 %
12.02.2019 08:24 0,5 C 0,6 C 0,0 C 97 % 1030,6 hPa 0,0 l/m 0 min 0 min 29 W/m 16,1 km/h (3 Bft) 98,00 %
12.02.2019 08:26 0,6 C 0,6 C 0,0 C 97 % 1030,6 hPa 0,0 l/m 2 min 0 min 33 W/m 6,4 km/h (2 Bft) 100,00 %
12.02.2019 08:28 0,6 C 0,6 C 0,0 C 97 % 1030,7 hPa 0,0 l/m 2 min 0 min 36 W/m 3,2 km/h (1 Bft) 100,00 %
12.02.2019 08:30 0,6 C 0,6 C 0,0 C 97 % 1030,8 hPa 0,0 l/m 2 min 0 min 39 W/m 3,2 km/h (1 Bft) 100,00 %
12.02.2019 08:32 0,6 C 0,6 C 0,0 C 97 % 1030,9 hPa 0,0 l/m 0 min 0 min 40 W/m 6,4 km/h (2 Bft) 97,83 %
12.02.2019 08:34 0,7 C 0,6 C 0,0 C 97 % 1030,9 hPa 0,0 l/m 0 min 0 min 42 W/m 6,4 km/h (2 Bft) 97,87 %
12.02.2019 08:36 0,7 C 0,6 C 0,0 C 97 % 1031,0 hPa 0,0 l/m 0 min 0 min 45 W/m 6,4 km/h (2 Bft) 97,87 %
12.02.2019 08:38 0,7 C 1,1 C 0,0 C 97 % 1031,1 hPa 0,0 l/m 0 min 0 min 44 W/m 9,7 km/h (2 Bft) 95,74 %
12.02.2019 08:40 0,7 C 1,1 C 0,0 C 97 % 1031,2 hPa 0,2 l/m 0 min 0 min 40 W/m 9,7 km/h (2 Bft) 97,87 %
12.02.2019 08:42 0,7 C 1,1 C 0,0 C 97 % 1031,1 hPa 0,0 l/m 0 min 0 min 36 W/m 6,4 km/h (2 Bft) 78,72 %
12.02.2019 08:44 0,8 C 1,1 C 0,6 C 97 % 1031,2 hPa 0,0 l/m 0 min 0 min 34 W/m 6,4 km/h (2 Bft) 78,26 %
12.02.2019 08:46 0,8 C 1,1 C 0,0 C 97 % 1031,2 hPa 0,0 l/m 0 min 0 min 32 W/m 9,7 km/h (2 Bft) 80,85 %
12.02.2019 08:48 0,8 C 1,1 C 0,0 C 97 % 1031,2 hPa 0,0 l/m 0 min 0 min 32 W/m 3,2 km/h (1 Bft) 87,23 %
12.02.2019 08:50 0,8 C 1,1 C 0,6 C 97 % 1031,2 hPa 0,0 l/m 0 min 0 min 32 W/m 6,4 km/h (2 Bft) 95,74 %
12.02.2019 08:52 0,8 C 1,1 C 0,6 C 97 % 1031,2 hPa 0,0 l/m 0 min 0 min 34 W/m 6,4 km/h (2 Bft) 95,74 %
12.02.2019 08:54 0,9 C 1,1 C 0,6 C 97 % 1031,3 hPa 0,0 l/m 0 min 0 min 36 W/m 12,9 km/h (3 Bft) 95,74 %
12.02.2019 08:56 0,9 C 1,1 C 0,6 C 97 % 1031,3 hPa 0,0 l/m 0 min 0 min 40 W/m 9,7 km/h (2 Bft) 97,83 %
12.02.2019 08:58 0,9 C 1,1 C 0,6 C 97 % 1031,4 hPa 0,0 l/m 0 min 0 min 45 W/m 12,9 km/h (3 Bft) 95,92 %
12.02.2019 09:00 0,9 C 1,1 C 0,6 C 97 % 1031,5 hPa 0,0 l/m 0 min 0 min 47 W/m 12,9 km/h (3 Bft) 93,62 %
12.02.2019 09:02 0,9 C 1,1 C 0,6 C 97 % 1031,5 hPa 0,0 l/m 0 min 0 min 47 W/m 9,7 km/h (2 Bft) 95,74 %
12.02.2019 09:04 0,9 C 1,1 C 0,6 C 97 % 1031,5 hPa 0,0 l/m 0 min 0 min 49 W/m 6,4 km/h (2 Bft) 95,74 %
12.02.2019 09:06 1,0 C 1,1 C 0,6 C 97 % 1031,5 hPa 0,0 l/m 0 min 0 min 48 W/m 9,7 km/h (2 Bft) 95,74 %
12.02.2019 09:08 1,0 C 1,1 C 0,6 C 97 % 1031,5 hPa 0,0 l/m 0 min 0 min 45 W/m 3,2 km/h (1 Bft) 95,65 %
12.02.2019 09:10 1,1 C 1,1 C 0,6 C 97 % 1031,6 hPa 0,0 l/m 0 min 0 min 43 W/m 6,4 km/h (2 Bft) 95,74 %
12.02.2019 09:12 1,1 C 1,1 C 0,6 C 97 % 1031,7 hPa 0,0 l/m 0 min 0 min 41 W/m 0,0 km/h (0 Bft) 89,36 %
12.02.2019 09:14 1,1 C 1,1 C 0,6 C 97 % 1031,7 hPa 0,0 l/m 0 min 0 min 37 W/m 0,0 km/h (0 Bft) 93,62 %
12.02.2019 09:16 1,1 C 1,1 C 0,6 C 97 % 1031,8 hPa 0,0 l/m 0 min 0 min 37 W/m 6,4 km/h (2 Bft) 95,74 %
12.02.2019 09:18 1,1 C 1,1 C 0,6 C 97 % 1031,7 hPa 0,0 l/m 0 min 0 min 39 W/m 6,4 km/h (2 Bft) 91,49 %
12.02.2019 09:20 1,2 C 1,1 C 0,6 C 97 % 1031,7 hPa 0,0 l/m 0 min 0 min 44 W/m 6,4 km/h (2 Bft) 95,65 %
12.02.2019 09:22 1,2 C 1,1 C 0,6 C 97 % 1031,8 hPa 0,0 l/m 0 min 0 min 47 W/m 6,4 km/h (2 Bft) 95,74 %
12.02.2019 09:24 1,2 C 1,1 C 0,6 C 97 % 1031,9 hPa 0,0 l/m 0 min 0 min 46 W/m 6,4 km/h (2 Bft) 95,74 %
12.02.2019 09:26 1,2 C 1,1 C 0,6 C 97 % 1031,8 hPa 0,0 l/m 0 min 0 min 50 W/m 6,4 km/h (2 Bft) 95,74 %
12.02.2019 09:28 1,2 C 1,7 C 1,1 C 97 % 1031,9 hPa 0,0 l/m 0 min 0 min 54 W/m 6,4 km/h (2 Bft) 95,74 %
12.02.2019 09:30 1,2 C 1,7 C 1,1 C 97 % 1031,9 hPa 0,0 l/m 0 min 0 min 53 W/m 6,4 km/h (2 Bft) 91,49 %
12.02.2019 09:32 1,3 C 1,7 C 1,1 C 97 % 1031,9 hPa 0,0 l/m 0 min 0 min 55 W/m 6,4 km/h (2 Bft) 95,65 %
12.02.2019 09:34 1,3 C 1,7 C 1,1 C 97 % 1031,9 hPa 0,0 l/m 0 min 0 min 69 W/m 6,4 km/h (2 Bft) 95,74 %
12.02.2019 09:36 1,3 C 1,7 C 1,1 C 97 % 1031,9 hPa 0,0 l/m 0 min 0 min 84 W/m 6,4 km/h (2 Bft) 97,87 %
12.02.2019 09:38 1,3 C 1,7 C 1,1 C 97 % 1031,9 hPa 0,0 l/m 0 min 0 min 96 W/m 6,4 km/h (2 Bft) 88,57 %
12.02.2019 09:40 1,4 C 2,2 C 1,7 C 97 % 1031,9 hPa 0,0 l/m 2 min 0 min 115 W/m 3,2 km/h (1 Bft) 95,74 %
12.02.2019 09:42 1,4 C 2,2 C 1,7 C 97 % 1031,9 hPa 0,0 l/m 2 min 0 min 125 W/m 6,4 km/h (2 Bft) 93,62 %
12.02.2019 09:44 1,4 C 2,2 C 1,7 C 97 % 1031,9 hPa 0,0 l/m 2 min 0 min 136 W/m 6,4 km/h (2 Bft) 95,74 %
12.02.2019 09:46 1,5 C 2,8 C 1,7 C 97 % 1032,0 hPa 0,0 l/m 2 min 0 min 141 W/m 6,4 km/h (2 Bft) 95,65 %
12.02.2019 09:48 1,6 C 2,8 C 1,7 C 97 % 1032,0 hPa 0,0 l/m 2 min 0 min 135 W/m 6,4 km/h (2 Bft) 91,49 %
12.02.2019 09:50 1,6 C 2,8 C 1,7 C 97 % 1032,0 hPa 0,0 l/m 0 min 0 min 120 W/m 3,2 km/h (1 Bft) 95,74 %
12.02.2019 09:52 1,7 C 2,8 C 1,7 C 97 % 1032,0 hPa 0,0 l/m 0 min 0 min 120 W/m 9,7 km/h (2 Bft) 97,87 %
12.02.2019 09:54 1,7 C 2,8 C 1,7 C 97 % 1032,0 hPa 0,0 l/m 0 min 0 min 119 W/m 3,2 km/h (1 Bft) 95,74 %
12.02.2019 09:56 1,8 C 2,8 C 1,7 C 97 % 1032,0 hPa 0,0 l/m 0 min 0 min 111 W/m 0,0 km/h (0 Bft) 97,87 %
12.02.2019 09:58 1,8 C 2,8 C 1,7 C 97 % 1032,0 hPa 0,0 l/m 0 min 0 min 100 W/m 12,9 km/h (3 Bft) 95,65 %
12.02.2019 10:00 1,9 C 2,8 C 1,7 C 97 % 1032,0 hPa 0,0 l/m 0 min 0 min 95 W/m 9,7 km/h (2 Bft) 97,87 %
12.02.2019 10:02 1,9 C 2,8 C 1,7 C 97 % 1032,0 hPa 0,0 l/m 0 min 0 min 90 W/m 9,7 km/h (2 Bft) 97,87 %
12.02.2019 10:04 1,9 C 2,8 C 1,7 C 97 % 1032,0 hPa 0,0 l/m 0 min 0 min 83 W/m 6,4 km/h (2 Bft) 97,87 %
12.02.2019 10:06 2,0 C 2,8 C 1,7 C 98 % 1032,1 hPa 0,0 l/m 0 min 0 min 77 W/m 6,4 km/h (2 Bft) 98,28 %
12.02.2019 10:08 2,0 C 2,2 C 1,7 C 98 % 1032,0 hPa 0,0 l/m 0 min 0 min 73 W/m 9,7 km/h (2 Bft) 97,62 %
12.02.2019 10:10 2,0 C 2,2 C 1,7 C 98 % 1032,1 hPa 0,0 l/m 0 min 0 min 70 W/m 9,7 km/h (2 Bft) 95,74 %
12.02.2019 10:12 2,1 C 2,2 C 1,7 C 98 % 1032,0 hPa 0,0 l/m 0 min 0 min 69 W/m 6,4 km/h (2 Bft) 97,87 %
12.02.2019 10:14 2,1 C 2,2 C 1,7 C 98 % 1032,0 hPa 0,0 l/m 0 min 0 min 67 W/m 9,7 km/h (2 Bft) 97,87 %
12.02.2019 10:16 2,1 C 2,2 C 1,7 C 98 % 1032,0 hPa 0,0 l/m 0 min 0 min 67 W/m 6,4 km/h (2 Bft) 97,87 %
12.02.2019 10:18 2,1 C 2,2 C 1,7 C 97 % 1032,1 hPa 0,0 l/m 0 min 0 min 67 W/m 6,4 km/h (2 Bft) 97,87 %
12.02.2019 10:20 2,1 C 2,2 C 1,7 C 97 % 1032,1 hPa 0,0 l/m 0 min 0 min 67 W/m 6,4 km/h (2 Bft) 100,00 %
12.02.2019 10:22 2,2 C 2,2 C 1,7 C 97 % 1032,1 hPa 0,0 l/m 0 min 0 min 72 W/m 3,2 km/h (1 Bft) 100,00 %
12.02.2019 10:24 2,2 C 2,2 C 1,7 C 97 % 1032,1 hPa 0,0 l/m 0 min 0 min 80 W/m 6,4 km/h (2 Bft) 100,00 %
12.02.2019 10:26 2,2 C 2,8 C 1,7 C 97 % 1032,0 hPa 0,0 l/m 0 min 0 min 89 W/m 6,4 km/h (2 Bft) 95,74 %
12.02.2019 10:28 2,2 C 2,8 C 2,2 C 97 % 1032,0 hPa 0,0 l/m 0 min 0 min 95 W/m 6,4 km/h (2 Bft) 100,00 %
12.02.2019 10:30 2,2 C 2,8 C 2,2 C 97 % 1032,0 hPa 0,0 l/m 0 min 0 min 101 W/m 6,4 km/h (2 Bft) 100,00 %
12.02.2019 10:32 2,3 C 2,8 C 2,2 C 97 % 1032,0 hPa 0,0 l/m 0 min 0 min 105 W/m 6,4 km/h (2 Bft) 97,87 %
12.02.2019 10:34 2,3 C 2,8 C 2,2 C 98 % 1032,0 hPa 0,0 l/m 0 min 0 min 106 W/m 6,4 km/h (2 Bft) 93,62 %
12.02.2019 10:36 2,3 C 2,8 C 2,2 C 98 % 1032,1 hPa 0,0 l/m 0 min 0 min 107 W/m 6,4 km/h (2 Bft) 100,00 %
12.02.2019 10:38 2,3 C 2,8 C 2,2 C 98 % 1032,1 hPa 0,0 l/m 0 min 0 min 105 W/m 6,4 km/h (2 Bft) 97,87 %
12.02.2019 10:40 2,4 C 2,8 C 2,2 C 98 % 1032,1 hPa 0,0 l/m 0 min 0 min 105 W/m 16,1 km/h (3 Bft) 100,00 %
12.02.2019 10:42 2,4 C 2,8 C 2,2 C 98 % 1032,1 hPa 0,0 l/m 0 min 0 min 105 W/m 9,7 km/h (2 Bft) 100,00 %
12.02.2019 10:44 2,4 C 2,8 C 2,2 C 98 % 1032,1 hPa 0,0 l/m 0 min 0 min 105 W/m 6,4 km/h (2 Bft) 97,87 %
12.02.2019 10:46 2,4 C 2,8 C 2,2 C 97 % 1032,1 hPa 0,0 l/m 0 min 0 min 105 W/m 9,7 km/h (2 Bft) 100,00 %
12.02.2019 10:48 2,4 C 2,8 C 2,2 C 97 % 1032,1 hPa 0,0 l/m 0 min 0 min 105 W/m 9,7 km/h (2 Bft) 100,00 %
12.02.2019 10:50 2,5 C 2,8 C 2,2 C 97 % 1032,2 hPa 0,0 l/m 0 min 0 min 106 W/m 9,7 km/h (2 Bft) 100,00 %
12.02.2019 10:52 2,5 C 2,8 C 2,2 C 97 % 1032,2 hPa 0,0 l/m 0 min 0 min 108 W/m 9,7 km/h (2 Bft) 100,00 %
12.02.2019 10:54 2,6 C 2,8 C 2,2 C 97 % 1032,2 hPa 0,0 l/m 0 min 0 min 111 W/m 9,7 km/h (2 Bft) 100,00 %
12.02.2019 10:56 2,6 C 2,8 C 2,2 C 97 % 1032,2 hPa 0,0 l/m 0 min 0 min 115 W/m 6,4 km/h (2 Bft) 100,00 %
12.02.2019 10:58 2,6 C 2,8 C 2,2 C 97 % 1032,2 hPa 0,0 l/m 0 min 0 min 118 W/m 6,4 km/h (2 Bft) 100,00 %
12.02.2019 11:00 2,6 C 3,3 C 2,2 C 97 % 1032,2 hPa 0,0 l/m 0 min 0 min 120 W/m 9,7 km/h (2 Bft) 97,87 %
12.02.2019 11:02 2,6 C 3,3 C 2,2 C 97 % 1032,3 hPa 0,0 l/m 0 min 0 min 122 W/m 6,4 km/h (2 Bft) 97,87 %
12.02.2019 11:04 2,6 C 3,3 C 2,8 C 97 % 1032,2 hPa 0,0 l/m 0 min 0 min 126 W/m 9,7 km/h (2 Bft) 100,00 %
12.02.2019 11:06 2,7 C 3,3 C 2,8 C 97 % 1032,2 hPa 0,0 l/m 0 min 0 min 126 W/m 6,4 km/h (2 Bft) 100,00 %
12.02.2019 11:08 2,7 C 3,3 C 2,8 C 97 % 1032,3 hPa 0,0 l/m 0 min 0 min 123 W/m 9,7 km/h (2 Bft) 100,00 %
12.02.2019 11:10 2,7 C 3,3 C 2,8 C 97 % 1032,4 hPa 0,0 l/m 0 min 0 min 128 W/m 6,4 km/h (2 Bft) 100,00 %
12.02.2019 11:12 2,7 C 3,3 C 2,8 C 97 % 1032,4 hPa 0,0 l/m 0 min 0 min 138 W/m 9,7 km/h (2 Bft) 100,00 %
12.02.2019 11:14 2,8 C 3,3 C 2,8 C 97 % 1032,4 hPa 0,0 l/m 0 min 0 min 151 W/m 12,9 km/h (3 Bft) 100,00 %
12.02.2019 11:16 2,8 C 3,3 C 2,8 C 97 % 1032,5 hPa 0,0 l/m 0 min 0 min 160 W/m 19,3 km/h (3 Bft) 100,00 %
12.02.2019 11:18 2,8 C 3,9 C 2,8 C 97 % 1032,5 hPa 0,0 l/m 0 min 0 min 161 W/m 9,7 km/h (2 Bft) 100,00 %
12.02.2019 11:20 2,8 C 3,9 C 3,3 C 97 % 1032,4 hPa 0,0 l/m 0 min 0 min 159 W/m 9,7 km/h (2 Bft) 100,00 %
12.02.2019 11:22 2,9 C 3,9 C 3,3 C 97 % 1032,4 hPa 0,0 l/m 0 min 0 min 155 W/m 6,4 km/h (2 Bft) 100,00 %
12.02.2019 11:24 2,9 C 3,9 C 2,8 C 97 % 1032,3 hPa 0,0 l/m 0 min 0 min 148 W/m 16,1 km/h (3 Bft) 100,00 %
12.02.2019 11:26 2,9 C 3,9 C 2,8 C 97 % 1032,4 hPa 0,0 l/m 0 min 0 min 140 W/m 9,7 km/h (2 Bft) 100,00 %
12.02.2019 11:28 2,9 C 3,3 C 2,8 C 97 % 1032,3 hPa 0,0 l/m 0 min 0 min 134 W/m 9,7 km/h (2 Bft) 100,00 %
12.02.2019 11:30 2,9 C 3,3 C 2,8 C 97 % 1032,2 hPa 0,0 l/m 0 min 0 min 133 W/m 12,9 km/h (3 Bft) 100,00 %
12.02.2019 11:32 2,9 C 3,3 C 2,8 C 97 % 1032,3 hPa 0,0 l/m 0 min 0 min 140 W/m 9,7 km/h (2 Bft) 100,00 %
12.02.2019 11:34 2,9 C 3,3 C 2,8 C 97 % 1032,4 hPa 0,0 l/m 0 min 0 min 152 W/m 16,1 km/h (3 Bft) 97,87 %
12.02.2019 11:36 2,9 C 3,9 C 3,3 C 97 % 1032,4 hPa 0,0 l/m 0 min 0 min 167 W/m 9,7 km/h (2 Bft) 100,00 %
12.02.2019 11:38 3,0 C 3,9 C 3,3 C 97 % 1032,5 hPa 0,0 l/m 0 min 0 min 177 W/m 9,7 km/h (2 Bft) 94,44 %
12.02.2019 11:40 3,0 C 4,4 C 3,3 C 97 % 1032,5 hPa 0,0 l/m 0 min 0 min 179 W/m 9,7 km/h (2 Bft) 95,74 %
12.02.2019 11:42 3,1 C 4,4 C 3,3 C 97 % 1032,6 hPa 0,0 l/m 0 min 0 min 177 W/m 9,7 km/h (2 Bft) 95,65 %
12.02.2019 11:44 3,1 C 4,4 C 3,3 C 97 % 1032,5 hPa 0,0 l/m 0 min 0 min 172 W/m 9,7 km/h (2 Bft) 95,74 %
12.02.2019 11:46 3,2 C 4,4 C 3,3 C 97 % 1032,5 hPa 0,0 l/m 0 min 0 min 169 W/m 6,4 km/h (2 Bft) 97,87 %
12.02.2019 11:48 3,2 C 4,4 C 3,3 C 97 % 1032,5 hPa 0,0 l/m 0 min 0 min 170 W/m 12,9 km/h (3 Bft) 95,74 %
12.02.2019 11:50 3,2 C 4,4 C 3,3 C 97 % 1032,5 hPa 0,0 l/m 0 min 0 min 177 W/m 9,7 km/h (2 Bft) 95,74 %
12.02.2019 11:52 3,2 C 5,0 C 3,9 C 97 % 1032,5 hPa 0,0 l/m 0 min 0 min 187 W/m 9,7 km/h (2 Bft) 95,65 %
12.02.2019 11:54 3,3 C 5,0 C 3,9 C 97 % 1032,5 hPa 0,0 l/m 0 min 0 min 196 W/m 9,7 km/h (2 Bft) 95,74 %
12.02.2019 11:56 3,3 C 5,0 C 3,9 C 97 % 1032,4 hPa 0,0 l/m 0 min 0 min 199 W/m 12,9 km/h (3 Bft) 95,74 %
12.02.2019 11:58 3,4 C 5,0 C 4,4 C 97 % 1032,4 hPa 0,0 l/m 0 min 0 min 202 W/m 16,1 km/h (3 Bft) 93,62 %
12.02.2019 12:00 3,4 C 5,0 C 4,4 C 97 % 1032,4 hPa 0,0 l/m 2 min 0 min 206 W/m 12,9 km/h (3 Bft) 93,62 %
12.02.2019 12:02 3,5 C 5,6 C 4,4 C 97 % 1032,4 hPa 0,0 l/m 0 min 0 min 204 W/m 9,7 km/h (2 Bft) 93,62 %
12.02.2019 12:04 3,6 C 5,6 C 4,4 C 97 % 1032,4 hPa 0,0 l/m 0 min 0 min 204 W/m 9,7 km/h (2 Bft) 86,96 %
12.02.2019 12:07 3,7 C 5,6 C 4,4 C 97 % 1032,4 hPa 0,0 l/m 0 min 0 min 193 W/m 9,7 km/h (2 Bft) 84,51 %
12.02.2019 12:08 3,7 C 5,6 C 4,4 C 96 % 1032,4 hPa 0,0 l/m 0 min 0 min 189 W/m 6,4 km/h (2 Bft) 82,61 %
12.02.2019 12:10 3,8 C 5,6 C 4,4 C 97 % 1032,4 hPa 0,0 l/m 0 min 0 min 186 W/m 6,4 km/h (2 Bft) 87,23 %
12.02.2019 12:12 3,8 C 5,6 C 4,4 C 97 % 1032,4 hPa 0,0 l/m 0 min 0 min 182 W/m 16,1 km/h (3 Bft) 92,00 %
12.02.2019 12:14 3,8 C 5,0 C 3,9 C 97 % 1032,4 hPa 0,0 l/m 0 min 0 min 177 W/m 9,7 km/h (2 Bft) 82,61 %
12.02.2019 12:16 3,9 C 5,0 C 3,9 C 96 % 1032,4 hPa 0,0 l/m 0 min 0 min 173 W/m 9,7 km/h (2 Bft) 85,11 %
12.02.2019 12:18 3,9 C 5,0 C 3,9 C 96 % 1032,4 hPa 0,0 l/m 0 min 0 min 171 W/m 9,7 km/h (2 Bft) 78,72 %
12.02.2019 12:20 3,9 C 5,0 C 3,9 C 96 % 1032,3 hPa 0,0 l/m 0 min 0 min 171 W/m 16,1 km/h (3 Bft) 89,36 %
12.02.2019 12:22 3,9 C 5,0 C 4,4 C 96 % 1032,3 hPa 0,0 l/m 0 min 0 min 171 W/m 16,1 km/h (3 Bft) 85,11 %
12.02.2019 12:24 3,9 C 5,0 C 4,4 C 96 % 1032,3 hPa 0,0 l/m 0 min 0 min 175 W/m 6,4 km/h (2 Bft) 80,85 %
12.02.2019 12:26 4,0 C 5,0 C 4,4 C 96 % 1032,3 hPa 0,0 l/m 0 min 0 min 182 W/m 12,9 km/h (3 Bft) 78,26 %
12.02.2019 12:28 4,1 C 5,6 C 4,4 C 96 % 1032,2 hPa 0,0 l/m 0 min 0 min 190 W/m 16,1 km/h (3 Bft) 82,98 %
12.02.2019 12:30 4,1 C 5,6 C 4,4 C 96 % 1032,1 hPa 0,0 l/m 0 min 0 min 197 W/m 9,7 km/h (2 Bft) 82,98 %
12.02.2019 12:32 4,1 C 5,6 C 4,4 C 95 % 1032,1 hPa 0,0 l/m 0 min 0 min 203 W/m 9,7 km/h (2 Bft) 61,70 %
12.02.2019 12:34 4,2 C 5,6 C 4,4 C 95 % 1032,2 hPa 0,0 l/m 0 min 0 min 209 W/m 9,7 km/h (2 Bft) 76,60 %
12.02.2019 12:36 4,2 C 6,1 C 5,0 C 95 % 1032,2 hPa 0,0 l/m 2 min 0 min 214 W/m 9,7 km/h (2 Bft) 82,98 %
12.02.2019 12:38 4,2 C 6,1 C 5,0 C 95 % 1032,2 hPa 0,0 l/m 0 min 0 min 212 W/m 6,4 km/h (2 Bft) 89,13 %
12.02.2019 12:40 4,3 C 6,1 C 5,0 C 95 % 1032,2 hPa 0,0 l/m 2 min 0 min 215 W/m 12,9 km/h (3 Bft) 85,11 %
12.02.2019 12:42 4,3 C 6,1 C 5,0 C 95 % 1032,2 hPa 0,0 l/m 2 min 0 min 220 W/m 9,7 km/h (2 Bft) 80,85 %
12.02.2019 12:44 4,4 C 6,1 C 5,0 C 95 % 1032,2 hPa 0,0 l/m 2 min 0 min 221 W/m 12,9 km/h (3 Bft) 78,72 %
12.02.2019 12:46 4,4 C 6,1 C 5,0 C 94 % 1032,2 hPa 0,0 l/m 2 min 0 min 221 W/m 19,3 km/h (3 Bft) 72,34 %
12.02.2019 12:48 4,4 C 6,1 C 5,0 C 94 % 1032,2 hPa 0,0 l/m 2 min 0 min 221 W/m 9,7 km/h (2 Bft) 80,85 %
12.02.2019 12:50 4,5 C 6,1 C 5,0 C 94 % 1032,2 hPa 0,0 l/m 2 min 0 min 222 W/m 12,9 km/h (3 Bft) 73,91 %
12.02.2019 12:52 4,6 C 6,1 C 5,0 C 94 % 1032,2 hPa 0,0 l/m 2 min 0 min 221 W/m 6,4 km/h (2 Bft) 59,57 %
12.02.2019 12:54 4,6 C 6,1 C 5,0 C 94 % 1032,2 hPa 0,0 l/m 2 min 0 min 218 W/m 9,7 km/h (2 Bft) 74,47 %
12.02.2019 12:56 4,6 C 6,1 C 5,0 C 93 % 1032,2 hPa 0,0 l/m 2 min 0 min 221 W/m 16,1 km/h (3 Bft) 91,49 %
12.02.2019 12:58 4,7 C 6,7 C 5,6 C 93 % 1032,2 hPa 0,0 l/m 2 min 0 min 232 W/m 9,7 km/h (2 Bft) 93,62 %
12.02.2019 13:00 4,7 C 6,7 C 5,6 C 93 % 1032,2 hPa 0,0 l/m 2 min 0 min 256 W/m 16,1 km/h (3 Bft) 95,74 %
12.02.2019 13:02 4,7 C 7,2 C 5,6 C 93 % 1032,1 hPa 0,0 l/m 2 min 0 min 262 W/m 6,4 km/h (2 Bft) 97,83 %
12.02.2019 13:04 4,8 C 7,2 C 6,1 C 93 % 1032,2 hPa 0,0 l/m 2 min 0 min 266 W/m 9,7 km/h (2 Bft) 91,49 %
12.02.2019 13:06 4,9 C 7,8 C 6,1 C 93 % 1032,1 hPa 0,0 l/m 2 min 0 min 267 W/m 9,7 km/h (2 Bft) 95,74 %
12.02.2019 13:08 4,9 C 7,8 C 6,1 C 93 % 1032,2 hPa 0,0 l/m 2 min 0 min 263 W/m 12,9 km/h (3 Bft) 97,87 %
12.02.2019 13:10 5,0 C 7,8 C 6,1 C 93 % 1032,2 hPa 0,0 l/m 2 min 0 min 263 W/m 12,9 km/h (3 Bft) 93,62 %
12.02.2019 13:12 5,0 C 7,8 C 6,1 C 92 % 1032,2 hPa 0,0 l/m 2 min 0 min 273 W/m 6,4 km/h (2 Bft) 100,00 %
12.02.2019 13:14 5,1 C 7,8 C 6,1 C 92 % 1032,2 hPa 0,0 l/m 2 min 0 min 284 W/m 12,9 km/h (3 Bft) 100,00 %
12.02.2019 13:16 5,2 C 7,8 C 6,1 C 92 % 1032,2 hPa 0,0 l/m 2 min 0 min 293 W/m 9,7 km/h (2 Bft) 100,00 %
12.02.2019 13:18 5,2 C 7,8 C 6,1 C 92 % 1032,1 hPa 0,0 l/m 2 min 0 min 298 W/m 16,1 km/h (3 Bft) 100,00 %
12.02.2019 13:20 5,3 C 7,2 C 6,1 C 92 % 1032,1 hPa 0,0 l/m 2 min 0 min 258 W/m 9,7 km/h (2 Bft) 97,87 %
12.02.2019 13:22 5,3 C 7,8 C 6,1 C 91 % 1032,1 hPa 0,0 l/m 2 min 0 min 259 W/m 9,7 km/h (2 Bft) 97,87 %
12.02.2019 13:24 5,4 C 8,9 C 6,1 C 91 % 1032,2 hPa 0,0 l/m 2 min 0 min 272 W/m 9,7 km/h (2 Bft) 97,83 %
12.02.2019 13:26 5,4 C 8,3 C 6,1 C 91 % 1032,2 hPa 0,0 l/m 2 min 0 min 269 W/m 12,9 km/h (3 Bft) 100,00 %
12.02.2019 13:28 5,5 C 7,8 C 6,1 C 91 % 1032,2 hPa 0,0 l/m 2 min 0 min 257 W/m 19,3 km/h (3 Bft) 100,00 %
12.02.2019 13:30 5,5 C 7,8 C 6,1 C 90 % 1032,2 hPa 0,0 l/m 2 min 0 min 267 W/m 9,7 km/h (2 Bft) 91,49 %
12.02.2019 13:32 5,6 C 9,4 C 6,1 C 90 % 1032,1 hPa 0,0 l/m 2 min 0 min 353 W/m 12,9 km/h (3 Bft) 97,87 %
12.02.2019 13:34 5,7 C 9,4 C 6,1 C 90 % 1032,1 hPa 0,0 l/m 2 min 0 min 374 W/m 9,7 km/h (2 Bft) 97,87 %
12.02.2019 13:36 5,8 C 10,0 C 6,1 C 89 % 1032,0 hPa 0,0 l/m 2 min 0 min 351 W/m 9,7 km/h (2 Bft) 100,00 %
12.02.2019 13:38 5,8 C 10,0 C 6,1 C 89 % 1032,0 hPa 0,0 l/m 2 min 0 min 300 W/m 9,7 km/h (2 Bft) 95,74 %
12.02.2019 13:40 5,9 C 9,4 C 6,1 C 89 % 1032,0 hPa 0,0 l/m 2 min 0 min 337 W/m 12,9 km/h (3 Bft) 97,87 %
12.02.2019 13:42 5,9 C 9,4 C 6,7 C 88 % 1032,0 hPa 0,0 l/m 2 min 0 min 427 W/m 16,1 km/h (3 Bft) 100,00 %
12.02.2019 13:44 6,1 C 10,0 C 6,7 C 88 % 1032,0 hPa 0,0 l/m 2 min 0 min 417 W/m 12,9 km/h (3 Bft) 97,87 %
12.02.2019 13:46 6,1 C 10,6 C 6,7 C 87 % 1032,0 hPa 0,0 l/m 2 min 0 min 509 W/m 19,3 km/h (3 Bft) 100,00 %
12.02.2019 13:48 6,2 C 10,6 C 6,7 C 87 % 1031,9 hPa 0,0 l/m 2 min 0 min 499 W/m 9,7 km/h (2 Bft) 100,00 %
12.02.2019 13:50 6,3 C 11,7 C 6,7 C 87 % 1031,9 hPa 0,0 l/m 2 min 0 min 493 W/m 6,4 km/h (2 Bft) 93,62 %
12.02.2019 13:52 6,4 C 11,7 C 7,2 C 86 % 1031,9 hPa 0,0 l/m 2 min 0 min 419 W/m 9,7 km/h (2 Bft) 100,00 %
12.02.2019 13:54 6,5 C 11,1 C 7,2 C 86 % 1031,9 hPa 0,0 l/m 2 min 0 min 411 W/m 16,1 km/h (3 Bft) 100,00 %
12.02.2019 13:56 6,7 C 11,1 C 7,2 C 86 % 1031,8 hPa 0,0 l/m 2 min 0 min 468 W/m 12,9 km/h (3 Bft) 97,87 %
12.02.2019 13:58 6,8 C 11,1 C 7,2 C 86 % 1031,8 hPa 0,0 l/m 2 min 0 min 446 W/m 12,9 km/h (3 Bft) 100,00 %
12.02.2019 14:00 6,8 C 11,1 C 7,2 C 85 % 1031,8 hPa 0,0 l/m 2 min 0 min 454 W/m 16,1 km/h (3 Bft) 100,00 %
12.02.2019 14:02 6,9 C 12,2 C 7,2 C 86 % 1031,7 hPa 0,0 l/m 2 min 0 min 470 W/m 19,3 km/h (3 Bft) 100,00 %
12.02.2019 14:04 7,1 C 12,8 C 7,8 C 86 % 1031,7 hPa 0,0 l/m 2 min 0 min 498 W/m 12,9 km/h (3 Bft) 97,87 %
12.02.2019 14:06 7,2 C 11,7 C 7,2 C 85 % 1031,7 hPa 0,0 l/m 2 min 0 min 471 W/m 12,9 km/h (3 Bft) 95,74 %
12.02.2019 14:08 7,3 C 12,2 C 7,8 C 85 % 1031,8 hPa 0,0 l/m 2 min 0 min 498 W/m 9,7 km/h (2 Bft) 97,87 %
12.02.2019 14:10 7,3 C 12,2 C 7,8 C 85 % 1031,8 hPa 0,0 l/m 2 min 0 min 530 W/m 9,7 km/h (2 Bft) 95,65 %
12.02.2019 14:12 7,4 C 10,6 C 7,8 C 85 % 1031,8 hPa 0,0 l/m 2 min 0 min 392 W/m 16,1 km/h (3 Bft) 93,62 %
12.02.2019 14:14 7,5 C 9,4 C 7,8 C 85 % 1031,8 hPa 0,0 l/m 2 min 0 min 295 W/m 16,1 km/h (3 Bft) 95,74 %
12.02.2019 14:16 7,5 C 9,4 C 7,2 C 84 % 1031,8 hPa 0,0 l/m 2 min 0 min 307 W/m 9,7 km/h (2 Bft) 95,74 %
12.02.2019 14:18 7,5 C 9,4 C 7,2 C 84 % 1031,8 hPa 0,0 l/m 2 min 0 min 357 W/m 16,1 km/h (3 Bft) 95,74 %
12.02.2019 14:20 7,6 C 8,9 C 7,2 C 83 % 1031,7 hPa 0,0 l/m 2 min 0 min 281 W/m 9,7 km/h (2 Bft) 95,74 %
12.02.2019 14:22 7,6 C 9,4 C 7,2 C 83 % 1031,8 hPa 0,0 l/m 2 min 0 min 265 W/m 6,4 km/h (2 Bft) 95,65 %
12.02.2019 14:24 7,6 C 9,4 C 7,2 C 83 % 1031,9 hPa 0,0 l/m 2 min 0 min 267 W/m 6,4 km/h (2 Bft) 95,74 %
12.02.2019 14:26 7,6 C 10,0 C 7,8 C 84 % 1031,9 hPa 0,0 l/m 2 min 0 min 308 W/m 12,9 km/h (3 Bft) 95,74 %
12.02.2019 14:28 7,6 C 9,4 C 7,2 C 83 % 1031,9 hPa 0,0 l/m 2 min 0 min 315 W/m 16,1 km/h (3 Bft) 93,62 %
12.02.2019 14:30 7,6 C 8,9 C 7,2 C 83 % 1031,9 hPa 0,0 l/m 2 min 0 min 241 W/m 9,7 km/h (2 Bft) 95,74 %
12.02.2019 14:32 7,7 C 8,9 C 7,2 C 84 % 1031,9 hPa 0,0 l/m 2 min 0 min 224 W/m 12,9 km/h (3 Bft) 95,74 %
12.02.2019 14:34 7,7 C 8,9 C 7,2 C 84 % 1031,9 hPa 0,0 l/m 2 min 0 min 233 W/m 12,9 km/h (3 Bft) 95,65 %
12.02.2019 14:36 7,6 C 8,3 C 7,2 C 83 % 1031,8 hPa 0,0 l/m 2 min 0 min 231 W/m 9,7 km/h (2 Bft) 93,62 %
12.02.2019 14:38 7,6 C 8,3 C 7,2 C 83 % 1031,8 hPa 0,0 l/m 2 min 0 min 217 W/m 9,7 km/h (2 Bft) 97,87 %
12.02.2019 14:40 7,6 C 8,3 C 7,2 C 83 % 1031,8 hPa 0,0 l/m 2 min 0 min 204 W/m 6,4 km/h (2 Bft) 95,74 %
12.02.2019 14:42 7,6 C 8,3 C 6,7 C 83 % 1031,8 hPa 0,0 l/m 2 min 0 min 208 W/m 9,7 km/h (2 Bft) 97,87 %
12.02.2019 14:44 7,6 C 8,3 C 6,7 C 83 % 1031,9 hPa 0,0 l/m 2 min 0 min 253 W/m 9,7 km/h (2 Bft) 97,87 %
12.02.2019 14:46 7,6 C 10,0 C 7,2 C 83 % 1031,8 hPa 0,0 l/m 2 min 0 min 326 W/m 9,7 km/h (2 Bft) 95,65 %
12.02.2019 14:48 7,6 C 10,0 C 7,2 C 83 % 1031,8 hPa 0,0 l/m 2 min 0 min 327 W/m 16,1 km/h (3 Bft) 97,87 %
12.02.2019 14:50 7,6 C 10,6 C 7,2 C 83 % 1031,9 hPa 0,0 l/m 2 min 0 min 327 W/m 9,7 km/h (2 Bft) 95,74 %
12.02.2019 14:52 7,6 C 11,7 C 7,2 C 83 % 1031,9 hPa 0,0 l/m 2 min 0 min 382 W/m 12,9 km/h (3 Bft) 100,00 %
12.02.2019 14:54 7,6 C 11,7 C 7,2 C 83 % 1031,9 hPa 0,0 l/m 2 min 0 min 399 W/m 16,1 km/h (3 Bft) 97,87 %
12.02.2019 14:56 7,6 C 11,7 C 7,2 C 83 % 1031,9 hPa 0,0 l/m 2 min 0 min 415 W/m 19,3 km/h (3 Bft) 100,00 %
12.02.2019 14:58 7,7 C 12,2 C 7,2 C 83 % 1032,0 hPa 0,0 l/m 2 min 0 min 401 W/m 9,7 km/h (2 Bft) 100,00 %
12.02.2019 15:00 7,7 C 12,2 C 7,2 C 83 % 1032,0 hPa 0,0 l/m 2 min 0 min 362 W/m 12,9 km/h (3 Bft) 100,00 %
12.02.2019 15:02 7,8 C 11,1 C 7,2 C 82 % 1032,1 hPa 0,0 l/m 2 min 0 min 258 W/m 12,9 km/h (3 Bft) 97,87 %
12.02.2019 15:04 7,8 C 11,1 C 7,2 C 82 % 1032,0 hPa 0,0 l/m 2 min 0 min 266 W/m 12,9 km/h (3 Bft) 100,00 %
12.02.2019 15:06 7,8 C 9,4 C 6,7 C 82 % 1032,0 hPa 0,0 l/m 2 min 0 min 162 W/m 9,7 km/h (2 Bft) 97,87 %
12.02.2019 15:08 7,8 C 10,0 C 6,7 C 82 % 1032,0 hPa 0,0 l/m 2 min 0 min 178 W/m 6,4 km/h (2 Bft) 100,00 %
12.02.2019 15:10 7,8 C 11,1 C 6,7 C 82 % 1032,1 hPa 0,0 l/m 2 min 0 min 289 W/m 9,7 km/h (2 Bft) 100,00 %
12.02.2019 15:12 7,9 C 10,6 C 6,7 C 82 % 1032,1 hPa 0,0 l/m 2 min 0 min 247 W/m 9,7 km/h (2 Bft) 100,00 %
12.02.2019 15:14 7,9 C 10,6 C 6,7 C 82 % 1032,0 hPa 0,0 l/m 2 min 0 min 219 W/m 9,7 km/h (2 Bft) 100,00 %
12.02.2019 15:16 7,9 C 10,0 C 6,7 C 82 % 1032,0 hPa 0,0 l/m 2 min 0 min 218 W/m 22,5 km/h (4 Bft) 97,87 %
12.02.2019 15:18 7,8 C 10,0 C 6,7 C 81 % 1032,0 hPa 0,0 l/m 2 min 0 min 218 W/m 12,9 km/h (3 Bft) 100,00 %
12.02.2019 15:20 7,8 C 10,6 C 6,7 C 81 % 1032,0 hPa 0,0 l/m 2 min 0 min 264 W/m 9,7 km/h (2 Bft) 100,00 %
12.02.2019 15:22 7,9 C 10,6 C 6,7 C 81 % 1031,9 hPa 0,0 l/m 2 min 0 min 282 W/m 9,7 km/h (2 Bft) 100,00 %
12.02.2019 15:24 7,9 C 11,1 C 6,7 C 81 % 1032,0 hPa 0,0 l/m 2 min 0 min 272 W/m 9,7 km/h (2 Bft) 97,87 %
12.02.2019 15:26 7,9 C 11,7 C 6,7 C 81 % 1032,0 hPa 0,0 l/m 2 min 0 min 274 W/m 6,4 km/h (2 Bft) 97,87 %
12.02.2019 15:28 7,9 C 12,2 C 6,7 C 82 % 1032,1 hPa 0,0 l/m 2 min 0 min 277 W/m 9,7 km/h (2 Bft) 100,00 %
12.02.2019 15:30 7,9 C 11,7 C 6,7 C 82 % 1032,0 hPa 0,0 l/m 2 min 0 min 281 W/m 9,7 km/h (2 Bft) 100,00 %
12.02.2019 15:32 7,9 C 11,1 C 6,7 C 81 % 1032,0 hPa 0,0 l/m 2 min 0 min 263 W/m 9,7 km/h (2 Bft) 100,00 %
12.02.2019 15:34 7,9 C 11,7 C 6,7 C 81 % 1032,0 hPa 0,0 l/m 2 min 0 min 247 W/m 6,4 km/h (2 Bft) 100,00 %
12.02.2019 15:36 8,0 C 11,1 C 6,7 C 81 % 1032,0 hPa 0,0 l/m 2 min 0 min 223 W/m 12,9 km/h (3 Bft) 100,00 %
12.02.2019 15:38 8,0 C 10,6 C 6,7 C 81 % 1032,0 hPa 0,0 l/m 2 min 0 min 180 W/m 9,7 km/h (2 Bft) 100,00 %
12.02.2019 15:40 8,0 C 9,4 C 6,1 C 81 % 1032,0 hPa 0,0 l/m 2 min 0 min 152 W/m 16,1 km/h (3 Bft) 97,87 %
12.02.2019 15:42 7,9 C 8,9 C 6,1 C 81 % 1032,0 hPa 0,0 l/m 2 min 0 min 150 W/m 16,1 km/h (3 Bft) 100,00 %
12.02.2019 15:44 7,9 C 8,9 C 6,1 C 81 % 1032,1 hPa 0,0 l/m 2 min 0 min 139 W/m 12,9 km/h (3 Bft) 100,00 %
12.02.2019 15:46 7,8 C 8,3 C 6,1 C 81 % 1032,1 hPa 0,0 l/m 2 min 0 min 135 W/m 12,9 km/h (3 Bft) 100,00 %
12.02.2019 15:48 7,8 C 8,3 C 6,1 C 81 % 1032,1 hPa 0,0 l/m 0 min 0 min 120 W/m 9,7 km/h (2 Bft) 100,00 %
12.02.2019 15:50 7,8 C 7,8 C 6,1 C 81 % 1032,0 hPa 0,0 l/m 0 min 0 min 107 W/m 12,9 km/h (3 Bft) 100,00 %
12.02.2019 15:52 7,7 C 7,2 C 6,1 C 81 % 1032,0 hPa 0,0 l/m 0 min 0 min 90 W/m 19,3 km/h (3 Bft) 100,00 %
12.02.2019 15:54 7,7 C 7,2 C 6,1 C 81 % 1032,0 hPa 0,0 l/m 0 min 0 min 79 W/m 16,1 km/h (3 Bft) 100,00 %
12.02.2019 15:56 7,6 C 7,2 C 6,1 C 81 % 1032,0 hPa 0,0 l/m 0 min 0 min 79 W/m 19,3 km/h (3 Bft) 97,83 %
12.02.2019 15:58 7,5 C 7,2 C 5,6 C 81 % 1032,0 hPa 0,0 l/m 0 min 0 min 84 W/m 12,9 km/h (3 Bft) 100,00 %
12.02.2019 16:00 7,4 C 7,2 C 5,6 C 81 % 1032,0 hPa 0,0 l/m 0 min 0 min 86 W/m 16,1 km/h (3 Bft) 97,87 %
12.02.2019 16:02 7,4 C 7,2 C 5,6 C 81 % 1031,9 hPa 0,0 l/m 0 min 0 min 88 W/m 12,9 km/h (3 Bft) 97,87 %
12.02.2019 16:04 7,4 C 7,2 C 5,6 C 82 % 1031,9 hPa 0,0 l/m 0 min 0 min 89 W/m 6,4 km/h (2 Bft) 100,00 %
12.02.2019 16:06 7,3 C 7,2 C 5,6 C 82 % 1032,0 hPa 0,0 l/m 0 min 0 min 100 W/m 9,7 km/h (2 Bft) 100,00 %
12.02.2019 16:08 7,3 C 7,2 C 5,6 C 82 % 1031,9 hPa 0,0 l/m 0 min 0 min 101 W/m 6,4 km/h (2 Bft) 100,00 %
12.02.2019 16:10 7,2 C 7,2 C 5,6 C 82 % 1032,0 hPa 0,0 l/m 2 min 0 min 103 W/m 9,7 km/h (2 Bft) 97,87 %
12.02.2019 16:12 7,2 C 7,2 C 5,6 C 82 % 1031,9 hPa 0,0 l/m 2 min 0 min 105 W/m 6,4 km/h (2 Bft) 97,87 %
12.02.2019 16:14 7,2 C 7,2 C 5,6 C 82 % 1031,9 hPa 0,0 l/m 2 min 0 min 102 W/m 9,7 km/h (2 Bft) 97,87 %
12.02.2019 16:16 7,2 C 7,2 C 5,6 C 82 % 1032,0 hPa 0,0 l/m 2 min 0 min 101 W/m 16,1 km/h (3 Bft) 97,87 %
12.02.2019 16:18 7,2 C 7,2 C 5,6 C 82 % 1032,0 hPa 0,0 l/m 0 min 0 min 93 W/m 3,2 km/h (1 Bft) 95,74 %
12.02.2019 16:20 7,1 C 7,2 C 5,6 C 83 % 1032,0 hPa 0,0 l/m 0 min 0 min 82 W/m 9,7 km/h (2 Bft) 95,65 %
12.02.2019 16:22 7,1 C 6,7 C 5,6 C 83 % 1032,0 hPa 0,0 l/m 0 min 0 min 78 W/m 12,9 km/h (3 Bft) 89,58 %
12.02.2019 16:24 7,1 C 6,7 C 5,6 C 83 % 1032,0 hPa 0,0 l/m 0 min 0 min 69 W/m 16,1 km/h (3 Bft) 93,62 %
12.02.2019 16:26 7,0 C 6,7 C 5,6 C 83 % 1032,1 hPa 0,0 l/m 0 min 0 min 64 W/m 12,9 km/h (3 Bft) 93,62 %
12.02.2019 16:28 6,9 C 6,7 C 5,6 C 83 % 1032,0 hPa 0,0 l/m 0 min 0 min 64 W/m 9,7 km/h (2 Bft) 93,62 %
12.02.2019 16:30 6,9 C 6,7 C 5,6 C 83 % 1032,0 hPa 0,0 l/m 0 min 0 min 63 W/m 12,9 km/h (3 Bft) 87,23 %
12.02.2019 16:32 6,9 C 6,7 C 5,6 C 83 % 1032,0 hPa 0,0 l/m 0 min 0 min 63 W/m 12,9 km/h (3 Bft) 93,48 %
12.02.2019 16:34 6,9 C 6,1 C 5,6 C 83 % 1032,0 hPa 0,0 l/m 0 min 0 min 65 W/m 12,9 km/h (3 Bft) 93,62 %
12.02.2019 16:36 6,8 C 6,1 C 5,6 C 84 % 1032,0 hPa 0,0 l/m 0 min 0 min 65 W/m 16,1 km/h (3 Bft) 95,74 %
12.02.2019 16:38 6,8 C 6,1 C 5,6 C 84 % 1031,9 hPa 0,0 l/m 0 min 0 min 65 W/m 9,7 km/h (2 Bft) 93,62 %
12.02.2019 16:40 6,8 C 6,1 C 5,6 C 84 % 1031,9 hPa 0,0 l/m 0 min 0 min 66 W/m 12,9 km/h (3 Bft) 95,65 %
12.02.2019 16:42 6,8 C 6,1 C 5,6 C 84 % 1031,9 hPa 0,0 l/m 0 min 0 min 64 W/m 16,1 km/h (3 Bft) 93,48 %
12.02.2019 16:44 6,8 C 6,1 C 5,6 C 84 % 1031,9 hPa 0,0 l/m 0 min 0 min 62 W/m 9,7 km/h (2 Bft) 93,62 %
12.02.2019 16:46 6,7 C 6,1 C 5,6 C 84 % 1032,0 hPa 0,0 l/m 0 min 0 min 61 W/m 16,1 km/h (3 Bft) 91,49 %
12.02.2019 16:48 6,7 C 6,1 C 5,6 C 84 % 1031,9 hPa 0,0 l/m 0 min 0 min 59 W/m 16,1 km/h (3 Bft) 93,62 %
12.02.2019 16:50 6,7 C 6,1 C 5,6 C 85 % 1031,9 hPa 0,0 l/m 0 min 0 min 56 W/m 16,1 km/h (3 Bft) 93,62 %
12.02.2019 16:52 6,7 C 6,1 C 5,6 C 85 % 1031,9 hPa 0,0 l/m 0 min 0 min 53 W/m 9,7 km/h (2 Bft) 91,49 %
12.02.2019 16:54 6,7 C 6,1 C 5,6 C 85 % 1031,9 hPa 0,0 l/m 0 min 0 min 50 W/m 9,7 km/h (2 Bft) 93,48 %
12.02.2019 16:56 6,6 C 6,1 C 5,6 C 85 % 1031,9 hPa 0,0 l/m 0 min 0 min 47 W/m 12,9 km/h (3 Bft) 93,62 %
12.02.2019 16:58 6,6 C 6,1 C 5,6 C 85 % 1031,9 hPa 0,0 l/m 0 min 0 min 41 W/m 9,7 km/h (2 Bft) 93,62 %
12.02.2019 17:00 6,6 C 6,1 C 5,6 C 85 % 1031,9 hPa 0,0 l/m 0 min 0 min 39 W/m 12,9 km/h (3 Bft) 91,49 %
12.02.2019 17:02 6,6 C 6,1 C 5,6 C 85 % 1032,0 hPa 0,0 l/m 0 min 0 min 36 W/m 12,9 km/h (3 Bft) 95,74 %
12.02.2019 17:04 6,6 C 6,1 C 5,0 C 85 % 1031,9 hPa 0,0 l/m 0 min 0 min 34 W/m 12,9 km/h (3 Bft) 95,74 %
12.02.2019 17:06 6,5 C 6,1 C 5,0 C 85 % 1031,9 hPa 0,0 l/m 0 min 0 min 32 W/m 9,7 km/h (2 Bft) 97,83 %
12.02.2019 17:08 6,5 C 6,1 C 5,0 C 85 % 1031,9 hPa 0,0 l/m 0 min 0 min 31 W/m 9,7 km/h (2 Bft) 93,62 %
12.02.2019 17:10 6,4 C 6,1 C 5,0 C 86 % 1031,9 hPa 0,0 l/m 0 min 0 min 30 W/m 9,7 km/h (2 Bft) 97,87 %
12.02.2019 17:12 6,4 C 5,6 C 5,0 C 86 % 1032,0 hPa 0,0 l/m 0 min 0 min 29 W/m 6,4 km/h (2 Bft) 97,87 %
12.02.2019 17:14 6,4 C 5,6 C 5,0 C 86 % 1032,0 hPa 0,0 l/m 0 min 0 min 28 W/m 12,9 km/h (3 Bft) 93,62 %
12.02.2019 17:16 6,4 C 5,6 C 5,0 C 86 % 1032,0 hPa 0,0 l/m 0 min 0 min 26 W/m 9,7 km/h (2 Bft) 95,74 %
12.02.2019 17:18 6,4 C 5,6 C 5,0 C 86 % 1032,0 hPa 0,0 l/m 2 min 0 min 25 W/m 9,7 km/h (2 Bft) 95,65 %
12.02.2019 17:20 6,4 C 5,6 C 5,0 C 86 % 1031,9 hPa 0,0 l/m 2 min 0 min 23 W/m 9,7 km/h (2 Bft) 97,87 %
12.02.2019 17:22 6,4 C 5,6 C 5,0 C 86 % 1032,0 hPa 0,0 l/m 0 min 0 min 20 W/m 9,7 km/h (2 Bft) 97,87 %
12.02.2019 17:24 6,4 C 5,6 C 5,0 C 86 % 1032,1 hPa 0,0 l/m 0 min 0 min 18 W/m 6,4 km/h (2 Bft) 100,00 %
12.02.2019 17:26 6,3 C 5,6 C 5,0 C 86 % 1032,0 hPa 0,0 l/m 0 min 0 min 14 W/m 6,4 km/h (2 Bft) 100,00 %
12.02.2019 17:28 6,3 C 5,6 C 5,0 C 86 % 1032,1 hPa 0,0 l/m 0 min 0 min 12 W/m 9,7 km/h (2 Bft) 100,00 %
12.02.2019 17:30 6,3 C 5,6 C 4,4 C 86 % 1032,1 hPa 0,0 l/m 0 min 0 min 11 W/m 6,4 km/h (2 Bft) 100,00 %
12.02.2019 17:32 6,3 C 5,6 C 4,4 C 86 % 1032,1 hPa 0,0 l/m 0 min 0 min 9 W/m 6,4 km/h (2 Bft) 100,00 %
12.02.2019 17:34 6,2 C 5,6 C 4,4 C 86 % 1032,0 hPa 0,0 l/m 0 min 0 min 7 W/m 9,7 km/h (2 Bft) 100,00 %
12.02.2019 17:36 6,2 C 5,0 C 4,4 C 86 % 1032,0 hPa 0,0 l/m 0 min 0 min 6 W/m 6,4 km/h (2 Bft) 97,87 %
12.02.2019 17:38 6,2 C 5,0 C 4,4 C 86 % 1032,1 hPa 0,0 l/m 0 min 0 min 5 W/m 9,7 km/h (2 Bft) 100,00 %
12.02.2019 17:40 6,2 C 5,0 C 4,4 C 86 % 1032,1 hPa 0,0 l/m 0 min 0 min 2 W/m 3,2 km/h (1 Bft) 100,00 %
12.02.2019 17:42 6,2 C 5,0 C 4,4 C 86 % 1032,2 hPa 0,0 l/m 0 min 0 min 0 W/m 6,4 km/h (2 Bft) 97,83 %
12.02.2019 17:44 6,1 C 5,0 C 4,4 C 86 % 1032,2 hPa 0,0 l/m 0 min 0 min 0 W/m 6,4 km/h (2 Bft) 100,00 %
12.02.2019 17:46 6,1 C 5,0 C 4,4 C 86 % 1032,3 hPa 0,0 l/m 0 min 0 min 0 W/m 6,4 km/h (2 Bft) 100,00 %
12.02.2019 17:48 6,1 C 5,0 C 4,4 C 87 % 1032,2 hPa 0,0 l/m 0 min 0 min 0 W/m 3,2 km/h (1 Bft) 100,00 %
12.02.2019 17:50 6,0 C 5,0 C 3,9 C 87 % 1032,2 hPa 0,0 l/m 0 min 0 min 0 W/m 6,4 km/h (2 Bft) 97,87 %
12.02.2019 17:52 6,0 C 5,0 C 4,4 C 87 % 1032,2 hPa 0,0 l/m 0 min 0 min 0 W/m 6,4 km/h (2 Bft) 95,65 %
12.02.2019 17:54 6,0 C 5,0 C 4,4 C 87 % 1032,3 hPa 0,0 l/m 0 min 0 min 0 W/m 6,4 km/h (2 Bft) 100,00 %
12.02.2019 17:56 5,9 C 5,0 C 4,4 C 87 % 1032,3 hPa 0,0 l/m 0 min 0 min 0 W/m 6,4 km/h (2 Bft) 97,87 %
12.02.2019 17:58 5,9 C 5,0 C 4,4 C 87 % 1032,3 hPa 0,0 l/m 0 min 0 min 0 W/m 6,4 km/h (2 Bft) 97,87 %
12.02.2019 18:00 5,9 C 5,0 C 4,4 C 87 % 1032,3 hPa 0,0 l/m 0 min 0 min 0 W/m 9,7 km/h (2 Bft) 100,00 %
12.02.2019 18:02 5,9 C 5,0 C 4,4 C 87 % 1032,4 hPa 0,0 l/m 0 min 0 min 0 W/m 6,4 km/h (2 Bft) 97,92 %
12.02.2019 18:04 5,9 C 5,0 C 4,4 C 87 % 1032,4 hPa 0,0 l/m 0 min 0 min 0 W/m 3,2 km/h (1 Bft) 100,00 %
12.02.2019 18:07 5,8 C 5,0 C 4,4 C 87 % 1032,4 hPa 0,0 l/m 0 min 0 min 0 W/m 6,4 km/h (2 Bft) 100,00 %
12.02.2019 18:08 5,8 C 5,0 C 4,4 C 87 % 1032,4 hPa 0,0 l/m 0 min 0 min 0 W/m 6,4 km/h (2 Bft) 100,00 %
12.02.2019 18:10 5,8 C 5,0 C 4,4 C 88 % 1032,5 hPa 0,0 l/m 0 min 0 min 0 W/m 9,7 km/h (2 Bft) 100,00 %
12.02.2019 18:12 5,8 C 5,0 C 4,4 C 88 % 1032,4 hPa 0,0 l/m 0 min 0 min 0 W/m 6,4 km/h (2 Bft) 100,00 %
12.02.2019 18:14 5,8 C 5,0 C 4,4 C 88 % 1032,5 hPa 0,0 l/m 0 min 0 min 0 W/m 9,7 km/h (2 Bft) 100,00 %
12.02.2019 18:16 5,8 C 5,0 C 4,4 C 88 % 1032,5 hPa 0,0 l/m 0 min 0 min 0 W/m 6,4 km/h (2 Bft) 100,00 %
12.02.2019 18:18 5,8 C 5,0 C 4,4 C 88 % 1032,5 hPa 0,0 l/m 0 min 0 min 0 W/m 6,4 km/h (2 Bft) 100,00 %
12.02.2019 18:20 5,8 C 5,0 C 4,4 C 88 % 1032,5 hPa 0,0 l/m 0 min 0 min 0 W/m 6,4 km/h (2 Bft) 100,00 %
12.02.2019 18:22 5,8 C 5,0 C 4,4 C 88 % 1032,5 hPa 0,0 l/m 0 min 0 min 0 W/m 9,7 km/h (2 Bft) 100,00 %
12.02.2019 18:24 5,7 C 5,0 C 4,4 C 88 % 1032,5 hPa 0,0 l/m 0 min 0 min 0 W/m 9,7 km/h (2 Bft) 100,00 %
12.02.2019 18:26 5,7 C 5,0 C 4,4 C 88 % 1032,5 hPa 0,0 l/m 0 min 0 min 0 W/m 9,7 km/h (2 Bft) 100,00 %
12.02.2019 18:28 5,7 C 5,0 C 4,4 C 88 % 1032,4 hPa 0,0 l/m 0 min 0 min 0 W/m 9,7 km/h (2 Bft) 97,83 %
12.02.2019 18:30 5,7 C 5,0 C 4,4 C 88 % 1032,5 hPa 0,0 l/m 0 min 0 min 0 W/m 9,7 km/h (2 Bft) 100,00 %
12.02.2019 18:32 5,7 C 5,0 C 4,4 C 88 % 1032,5 hPa 0,0 l/m 0 min 0 min 0 W/m 6,4 km/h (2 Bft) 100,00 %
12.02.2019 18:34 5,7 C 5,0 C 4,4 C 88 % 1032,6 hPa 0,0 l/m 0 min 0 min 0 W/m 6,4 km/h (2 Bft) 100,00 %
12.02.2019 18:36 5,7 C 5,0 C 4,4 C 88 % 1032,6 hPa 0,0 l/m 0 min 0 min 0 W/m 6,4 km/h (2 Bft) 100,00 %
12.02.2019 18:38 5,7 C 5,0 C 3,9 C 88 % 1032,6 hPa 0,0 l/m 0 min 0 min 0 W/m 6,4 km/h (2 Bft) 100,00 %
12.02.2019 18:40 5,6 C 5,0 C 3,9 C 88 % 1032,7 hPa 0,0 l/m 0 min 0 min 0 W/m 6,4 km/h (2 Bft) 100,00 %
12.02.2019 18:42 5,6 C 4,4 C 3,9 C 88 % 1032,7 hPa 0,0 l/m 0 min 0 min 0 W/m 6,4 km/h (2 Bft) 100,00 %
12.02.2019 18:44 5,6 C 4,4 C 3,9 C 88 % 1032,7 hPa 0,0 l/m 0 min 0 min 0 W/m 6,4 km/h (2 Bft) 100,00 %
12.02.2019 18:46 5,6 C 4,4 C 3,9 C 88 % 1032,6 hPa 0,0 l/m 0 min 0 min 0 W/m 6,4 km/h (2 Bft) 100,00 %
12.02.2019 18:48 5,6 C 4,4 C 3,9 C 88 % 1032,6 hPa 0,0 l/m 0 min 0 min 0 W/m 6,4 km/h (2 Bft) 97,87 %
12.02.2019 18:50 5,5 C 4,4 C 3,9 C 88 % 1032,6 hPa 0,0 l/m 0 min 0 min 0 W/m 6,4 km/h (2 Bft) 100,00 %
12.02.2019 18:52 5,5 C 5,0 C 3,9 C 88 % 1032,7 hPa 0,0 l/m 0 min 0 min 0 W/m 9,7 km/h (2 Bft) 95,65 %
12.02.2019 18:54 5,4 C 5,0 C 3,9 C 88 % 1032,7 hPa 0,0 l/m 0 min 0 min 0 W/m 6,4 km/h (2 Bft) 100,00 %
12.02.2019 18:56 5,4 C 5,0 C 3,9 C 88 % 1032,6 hPa 0,0 l/m 0 min 0 min 0 W/m 6,4 km/h (2 Bft) 97,87 %
12.02.2019 18:58 5,4 C 5,0 C 3,9 C 88 % 1032,7 hPa 0,0 l/m 0 min 0 min 0 W/m 6,4 km/h (2 Bft) 89,36 %
12.02.2019 19:00 5,4 C 5,0 C 3,9 C 88 % 1032,7 hPa 0,0 l/m 0 min 0 min 0 W/m 6,4 km/h (2 Bft) 95,74 %
12.02.2019 19:02 5,4 C 4,4 C 3,9 C 88 % 1032,6 hPa 0,0 l/m 0 min 0 min 0 W/m 6,4 km/h (2 Bft) 95,65 %
12.02.2019 19:04 5,4 C 4,4 C 3,9 C 89 % 1032,6 hPa 0,0 l/m 0 min 0 min 0 W/m 6,4 km/h (2 Bft) 93,62 %
12.02.2019 19:06 5,4 C 4,4 C 3,9 C 89 % 1032,7 hPa 0,0 l/m 0 min 0 min 0 W/m 6,4 km/h (2 Bft) 89,36 %
12.02.2019 19:08 5,4 C 4,4 C 3,9 C 89 % 1032,7 hPa 0,0 l/m 0 min 0 min 0 W/m 6,4 km/h (2 Bft) 91,49 %
12.02.2019 19:10 5,3 C 4,4 C 3,9 C 89 % 1032,7 hPa 0,0 l/m 0 min 0 min 0 W/m 6,4 km/h (2 Bft) 95,74 %
12.02.2019 19:12 5,3 C 4,4 C 3,9 C 89 % 1032,7 hPa 0,0 l/m 0 min 0 min 0 W/m 9,7 km/h (2 Bft) 89,36 %
12.02.2019 19:14 5,3 C 4,4 C 3,9 C 89 % 1032,6 hPa 0,0 l/m 0 min 0 min 0 W/m 6,4 km/h (2 Bft) 91,30 %
12.02.2019 19:16 5,3 C 4,4 C 3,9 C 89 % 1032,7 hPa 0,0 l/m 0 min 0 min 0 W/m 6,4 km/h (2 Bft) 95,74 %
12.02.2019 19:18 5,3 C 4,4 C 3,9 C 89 % 1032,7 hPa 0,0 l/m 0 min 0 min 0 W/m 6,4 km/h (2 Bft) 95,74 %
12.02.2019 19:20 5,3 C 4,4 C 3,3 C 89 % 1032,7 hPa 0,0 l/m 0 min 0 min 0 W/m 6,4 km/h (2 Bft) 93,62 %
12.02.2019 19:22 5,2 C 4,4 C 3,3 C 89 % 1032,7 hPa 0,0 l/m 0 min 0 min 0 W/m 6,4 km/h (2 Bft) 91,49 %
12.02.2019 19:24 5,2 C 4,4 C 3,3 C 89 % 1032,7 hPa 0,0 l/m 0 min 0 min 0 W/m 6,4 km/h (2 Bft) 95,83 %
12.02.2019 19:26 5,2 C 4,4 C 3,3 C 89 % 1032,7 hPa 0,0 l/m 0 min 0 min 0 W/m 6,4 km/h (2 Bft) 95,65 %
12.02.2019 19:28 5,2 C 4,4 C 3,3 C 89 % 1032,7 hPa 0,0 l/m 0 min 0 min 0 W/m 6,4 km/h (2 Bft) 95,74 %
12.02.2019 19:30 5,2 C 4,4 C 3,3 C 89 % 1032,6 hPa 0,0 l/m 0 min 0 min 0 W/m 6,4 km/h (2 Bft) 93,62 %
12.02.2019 19:32 5,1 C 4,4 C 3,3 C 89 % 1032,7 hPa 0,0 l/m 0 min 0 min 0 W/m 6,4 km/h (2 Bft) 93,62 %
12.02.2019 19:34 5,1 C 4,4 C 3,3 C 89 % 1032,7 hPa 0,0 l/m 0 min 0 min 0 W/m 6,4 km/h (2 Bft) 93,62 %
12.02.2019 19:36 5,1 C 4,4 C 3,3 C 89 % 1032,7 hPa 0,0 l/m 0 min 0 min 0 W/m 6,4 km/h (2 Bft) 91,49 %
12.02.2019 19:38 5,0 C 4,4 C 3,3 C 89 % 1032,7 hPa 0,0 l/m 0 min 0 min 0 W/m 9,7 km/h (2 Bft) 93,48 %
12.02.2019 19:40 5,0 C 4,4 C 3,3 C 89 % 1032,7 hPa 0,0 l/m 0 min 0 min 0 W/m 9,7 km/h (2 Bft) 91,49 %
12.02.2019 19:42 4,9 C 3,9 C 3,3 C 89 % 1032,8 hPa 0,0 l/m 0 min 0 min 0 W/m 3,2 km/h (1 Bft) 93,62 %
12.02.2019 19:44 4,9 C 3,9 C 3,3 C 89 % 1032,8 hPa 0,0 l/m 0 min 0 min 0 W/m 3,2 km/h (1 Bft) 89,36 %
12.02.2019 19:46 4,9 C 3,9 C 3,3 C 89 % 1032,8 hPa 0,0 l/m 0 min 0 min 0 W/m 9,7 km/h (2 Bft) 87,23 %
12.02.2019 19:48 4,9 C 3,9 C 3,3 C 89 % 1032,8 hPa 0,0 l/m 0 min 0 min 0 W/m 9,7 km/h (2 Bft) 93,48 %
12.02.2019 19:50 4,9 C 3,9 C 3,3 C 89 % 1032,8 hPa 0,0 l/m 0 min 0 min 0 W/m 12,9 km/h (3 Bft) 91,49 %
12.02.2019 19:52 4,8 C 3,9 C 3,3 C 90 % 1032,7 hPa 0,0 l/m 0 min 0 min 0 W/m 6,4 km/h (2 Bft) 91,49 %
12.02.2019 19:54 4,8 C 3,9 C 3,3 C 90 % 1032,7 hPa 0,0 l/m 0 min 0 min 0 W/m 6,4 km/h (2 Bft) 97,87 %
12.02.2019 19:56 4,8 C 3,9 C 3,3 C 90 % 1032,8 hPa 0,0 l/m 0 min 0 min 0 W/m 6,4 km/h (2 Bft) 97,87 %
12.02.2019 19:58 4,8 C 3,9 C 3,3 C 90 % 1032,7 hPa 0,0 l/m 0 min 0 min 0 W/m 6,4 km/h (2 Bft) 91,49 %
12.02.2019 20:00 4,7 C 3,9 C 3,3 C 90 % 1032,7 hPa 0,0 l/m 0 min 0 min 0 W/m 9,7 km/h (2 Bft) 95,74 %
12.02.2019 20:02 4,7 C 3,9 C 3,3 C 90 % 1032,7 hPa 0,0 l/m 0 min 0 min 0 W/m 9,7 km/h (2 Bft) 93,48 %
12.02.2019 20:04 4,7 C 3,9 C 3,3 C 90 % 1032,7 hPa 0,0 l/m 0 min 0 min 0 W/m 6,4 km/h (2 Bft) 95,74 %
12.02.2019 20:06 4,7 C 3,9 C 3,3 C 90 % 1032,6 hPa 0,0 l/m 0 min 0 min 0 W/m 6,4 km/h (2 Bft) 91,49 %
12.02.2019 20:08 4,6 C 3,9 C 3,3 C 90 % 1032,6 hPa 0,0 l/m 0 min 0 min 0 W/m 9,7 km/h (2 Bft) 95,74 %
12.02.2019 20:10 4,6 C 3,9 C 3,3 C 90 % 1032,6 hPa 0,0 l/m 0 min 0 min 0 W/m 9,7 km/h (2 Bft) 93,62 %
12.02.2019 20:12 4,6 C 3,9 C 3,3 C 90 % 1032,5 hPa 0,0 l/m 0 min 0 min 0 W/m 9,7 km/h (2 Bft) 97,83 %
12.02.2019 20:14 4,6 C 3,9 C 3,3 C 90 % 1032,5 hPa 0,0 l/m 0 min 0 min 0 W/m 6,4 km/h (2 Bft) 95,74 %
12.02.2019 20:16 4,6 C 3,9 C 3,3 C 90 % 1032,6 hPa 0,0 l/m 0 min 0 min 0 W/m 9,7 km/h (2 Bft) 93,62 %
12.02.2019 20:18 4,5 C 3,9 C 3,3 C 90 % 1032,6 hPa 0,0 l/m 0 min 0 min 0 W/m 6,4 km/h (2 Bft) 93,62 %
12.02.2019 20:20 4,5 C 3,9 C 3,3 C 90 % 1032,6 hPa 0,0 l/m 0 min 0 min 0 W/m 6,4 km/h (2 Bft) 93,62 %
12.02.2019 20:22 4,4 C 3,3 C 2,8 C 90 % 1032,6 hPa 0,0 l/m 0 min 0 min 0 W/m 9,7 km/h (2 Bft) 95,74 %
12.02.2019 20:24 4,4 C 3,9 C 2,8 C 90 % 1032,6 hPa 0,0 l/m 0 min 0 min 0 W/m 9,7 km/h (2 Bft) 95,65 %
12.02.2019 20:26 4,4 C 3,9 C 2,8 C 90 % 1032,6 hPa 0,0 l/m 0 min 0 min 0 W/m 9,7 km/h (2 Bft) 97,87 %
12.02.2019 20:28 4,4 C 3,9 C 2,8 C 90 % 1032,6 hPa 0,0 l/m 0 min 0 min 0 W/m 6,4 km/h (2 Bft) 97,87 %
12.02.2019 20:30 4,4 C 3,3 C 2,8 C 90 % 1032,5 hPa 0,0 l/m 0 min 0 min 0 W/m 6,4 km/h (2 Bft) 93,62 %
12.02.2019 20:32 4,3 C 3,3 C 2,8 C 90 % 1032,6 hPa 0,0 l/m 0 min 0 min 0 W/m 6,4 km/h (2 Bft) 97,87 %
12.02.2019 20:34 4,3 C 3,3 C 2,8 C 90 % 1032,6 hPa 0,0 l/m 0 min 0 min 0 W/m 6,4 km/h (2 Bft) 97,87 %
12.02.2019 20:36 4,3 C 3,3 C 2,8 C 90 % 1032,6 hPa 0,0 l/m 0 min 0 min 0 W/m 6,4 km/h (2 Bft) 100,00 %
12.02.2019 20:38 4,3 C 3,3 C 2,8 C 91 % 1032,7 hPa 0,0 l/m 0 min 0 min 0 W/m 9,7 km/h (2 Bft) 97,87 %
12.02.2019 20:40 4,2 C 3,3 C 2,8 C 91 % 1032,7 hPa 0,0 l/m 0 min 0 min 0 W/m 9,7 km/h (2 Bft) 97,87 %
12.02.2019 20:42 4,2 C 3,3 C 2,8 C 91 % 1032,7 hPa 0,0 l/m 0 min 0 min 0 W/m 9,7 km/h (2 Bft) 95,74 %
12.02.2019 20:44 4,2 C 3,3 C 2,8 C 91 % 1032,7 hPa 0,0 l/m 0 min 0 min 0 W/m 9,7 km/h (2 Bft) 100,00 %
12.02.2019 20:46 4,2 C 3,3 C 2,8 C 91 % 1032,7 hPa 0,0 l/m 0 min 0 min 0 W/m 3,2 km/h (1 Bft) 100,00 %
12.02.2019 20:48 4,2 C 3,3 C 2,8 C 90 % 1032,7 hPa 0,0 l/m 0 min 0 min 0 W/m 6,4 km/h (2 Bft) 100,00 %
12.02.2019 20:50 4,2 C 3,3 C 2,8 C 90 % 1032,7 hPa 0,0 l/m 0 min 0 min 0 W/m 9,7 km/h (2 Bft) 97,87 %
12.02.2019 20:52 4,2 C 3,3 C 2,8 C 90 % 1032,8 hPa 0,0 l/m 0 min 0 min 0 W/m 9,7 km/h (2 Bft) 93,62 %
12.02.2019 20:54 4,1 C 3,3 C 2,8 C 90 % 1032,7 hPa 0,0 l/m 0 min 0 min 0 W/m 6,4 km/h (2 Bft) 100,00 %
12.02.2019 20:56 4,1 C 3,3 C 2,8 C 90 % 1032,7 hPa 0,0 l/m 0 min 0 min 0 W/m 6,4 km/h (2 Bft) 97,87 %
12.02.2019 20:58 4,1 C 3,3 C 2,8 C 90 % 1032,8 hPa 0,0 l/m 0 min 0 min 0 W/m 9,7 km/h (2 Bft) 100,00 %
12.02.2019 21:00 4,1 C 3,3 C 2,8 C 90 % 1032,8 hPa 0,0 l/m 0 min 0 min 0 W/m 6,4 km/h (2 Bft) 97,83 %
12.02.2019 21:02 4,1 C 3,3 C 2,8 C 90 % 1032,8 hPa 0,0 l/m 0 min 0 min 0 W/m 3,2 km/h (1 Bft) 100,00 %
12.02.2019 21:04 4,1 C 3,3 C 2,8 C 91 % 1032,8 hPa 0,0 l/m 0 min 0 min 0 W/m 6,4 km/h (2 Bft) 97,87 %
12.02.2019 21:06 4,1 C 3,3 C 2,8 C 91 % 1032,8 hPa 0,0 l/m 0 min 0 min 0 W/m 6,4 km/h (2 Bft) 100,00 %
12.02.2019 21:08 4,1 C 3,3 C 2,8 C 91 % 1032,9 hPa 0,0 l/m 0 min 0 min 0 W/m 9,7 km/h (2 Bft) 100,00 %
12.02.2019 21:10 4,1 C 3,3 C 2,8 C 91 % 1033,0 hPa 0,0 l/m 0 min 0 min 0 W/m 9,7 km/h (2 Bft) 97,83 %
12.02.2019 21:12 4,0 C 3,3 C 2,8 C 91 % 1032,9 hPa 0,0 l/m 0 min 0 min 0 W/m 3,2 km/h (1 Bft) 100,00 %
12.02.2019 21:14 4,0 C 3,3 C 2,8 C 91 % 1032,9 hPa 0,0 l/m 0 min 0 min 0 W/m 3,2 km/h (1 Bft) 97,87 %
12.02.2019 21:16 4,0 C 3,3 C 2,8 C 90 % 1032,9 hPa 0,0 l/m 0 min 0 min 0 W/m 9,7 km/h (2 Bft) 95,74 %
12.02.2019 21:18 4,0 C 3,3 C 2,8 C 90 % 1032,8 hPa 0,0 l/m 0 min 0 min 0 W/m 9,7 km/h (2 Bft) 100,00 %
12.02.2019 21:20 3,9 C 3,3 C 2,8 C 90 % 1032,9 hPa 0,0 l/m 0 min 0 min 0 W/m 12,9 km/h (3 Bft) 97,87 %
12.02.2019 21:22 3,9 C 3,3 C 2,8 C 91 % 1032,8 hPa 0,0 l/m 0 min 0 min 0 W/m 9,7 km/h (2 Bft) 97,83 %
12.02.2019 21:24 3,9 C 3,3 C 2,8 C 91 % 1032,8 hPa 0,0 l/m 0 min 0 min 0 W/m 9,7 km/h (2 Bft) 97,87 %
12.02.2019 21:26 3,9 C 3,3 C 2,8 C 91 % 1032,7 hPa 0,0 l/m 0 min 0 min 0 W/m 12,9 km/h (3 Bft) 97,87 %
12.02.2019 21:28 3,9 C 3,3 C 2,8 C 91 % 1032,8 hPa 0,0 l/m 0 min 0 min 0 W/m 12,9 km/h (3 Bft) 97,87 %
12.02.2019 21:30 3,9 C 3,3 C 2,8 C 91 % 1032,8 hPa 0,0 l/m 0 min 0 min 0 W/m 12,9 km/h (3 Bft) 95,74 %
12.02.2019 21:32 3,9 C 3,3 C 2,8 C 91 % 1032,8 hPa 0,0 l/m 0 min 0 min 0 W/m 12,9 km/h (3 Bft) 97,87 %
12.02.2019 21:34 3,9 C 3,3 C 2,8 C 91 % 1032,8 hPa 0,0 l/m 0 min 0 min 0 W/m 9,7 km/h (2 Bft) 97,83 %
12.02.2019 21:36 3,9 C 3,3 C 2,8 C 90 % 1032,7 hPa 0,0 l/m 0 min 0 min 0 W/m 6,4 km/h (2 Bft) 93,62 %
12.02.2019 21:38 3,9 C 3,3 C 2,8 C 90 % 1032,7 hPa 0,0 l/m 0 min 0 min 0 W/m 6,4 km/h (2 Bft) 97,87 %
12.02.2019 21:40 3,9 C 3,3 C 2,8 C 90 % 1032,8 hPa 0,0 l/m 0 min 0 min 0 W/m 6,4 km/h (2 Bft) 97,87 %
12.02.2019 21:42 3,9 C 3,3 C 2,8 C 90 % 1032,8 hPa 0,0 l/m 0 min 0 min 0 W/m 9,7 km/h (2 Bft) 89,36 %
12.02.2019 21:44 3,9 C 3,3 C 2,8 C 90 % 1032,8 hPa 0,0 l/m 0 min 0 min 0 W/m 6,4 km/h (2 Bft) 82,98 %
12.02.2019 21:46 3,9 C 3,3 C 2,8 C 90 % 1032,8 hPa 0,0 l/m 0 min 0 min 0 W/m 6,4 km/h (2 Bft) 82,61 %
12.02.2019 21:48 3,9 C 3,3 C 2,8 C 90 % 1032,9 hPa 0,0 l/m 0 min 0 min 0 W/m 9,7 km/h (2 Bft) 82,98 %
12.02.2019 21:50 3,9 C 3,3 C 2,8 C 90 % 1032,9 hPa 0,0 l/m 0 min 0 min 0 W/m 9,7 km/h (2 Bft) 82,98 %
12.02.2019 21:52 3,9 C 3,3 C 2,8 C 90 % 1032,9 hPa 0,0 l/m 0 min 0 min 0 W/m 6,4 km/h (2 Bft) 72,34 %
12.02.2019 21:54 3,9 C 3,3 C 2,8 C 90 % 1033,1 hPa 0,0 l/m 0 min 0 min 0 W/m 3,2 km/h (1 Bft) 70,21 %
12.02.2019 21:56 3,9 C 3,3 C 2,2 C 90 % 1033,1 hPa 0,0 l/m 0 min 0 min 0 W/m 3,2 km/h (1 Bft) 80,85 %
12.02.2019 21:58 3,9 C 3,3 C 2,2 C 90 % 1033,1 hPa 0,0 l/m 0 min 0 min 0 W/m 6,4 km/h (2 Bft) 78,26 %
12.02.2019 22:00 3,8 C 2,8 C 2,2 C 90 % 1033,1 hPa 0,0 l/m 0 min 0 min 0 W/m 3,2 km/h (1 Bft) 82,98 %
12.02.2019 22:02 3,8 C 2,8 C 2,2 C 90 % 1033,1 hPa 0,0 l/m 0 min 0 min 0 W/m 6,4 km/h (2 Bft) 85,11 %
12.02.2019 22:04 3,8 C 2,8 C 2,2 C 90 % 1033,1 hPa 0,0 l/m 0 min 0 min 0 W/m 3,2 km/h (1 Bft) 87,23 %
12.02.2019 22:06 3,8 C 2,8 C 2,2 C 90 % 1033,0 hPa 0,0 l/m 0 min 0 min 0 W/m 9,7 km/h (2 Bft) 87,23 %
12.02.2019 22:08 3,8 C 2,8 C 2,2 C 90 % 1033,0 hPa 0,0 l/m 0 min 0 min 0 W/m 6,4 km/h (2 Bft) 87,23 %
12.02.2019 22:10 3,8 C 2,8 C 2,2 C 90 % 1033,0 hPa 0,0 l/m 0 min 0 min 0 W/m 9,7 km/h (2 Bft) 91,49 %
12.02.2019 22:12 3,7 C 2,8 C 2,2 C 90 % 1033,0 hPa 0,0 l/m 0 min 0 min 0 W/m 3,2 km/h (1 Bft) 97,87 %
12.02.2019 22:14 3,7 C 2,8 C 2,2 C 90 % 1033,0 hPa 0,0 l/m 0 min 0 min 0 W/m 6,4 km/h (2 Bft) 97,87 %
12.02.2019 22:16 3,7 C 2,8 C 2,2 C 90 % 1033,0 hPa 0,0 l/m 0 min 0 min 0 W/m 9,7 km/h (2 Bft) 93,62 %
12.02.2019 22:18 3,7 C 2,8 C 2,2 C 90 % 1033,0 hPa 0,0 l/m 0 min 0 min 0 W/m 6,4 km/h (2 Bft) 97,87 %
12.02.2019 22:20 3,7 C 2,8 C 2,2 C 90 % 1032,9 hPa 0,0 l/m 0 min 0 min 0 W/m 12,9 km/h (3 Bft) 97,83 %
12.02.2019 22:22 3,6 C 2,8 C 2,2 C 90 % 1032,9 hPa 0,0 l/m 0 min 0 min 0 W/m 9,7 km/h (2 Bft) 95,74 %
12.02.2019 22:24 3,6 C 2,8 C 2,2 C 90 % 1032,9 hPa 0,0 l/m 0 min 0 min 0 W/m 12,9 km/h (3 Bft) 97,87 %
12.02.2019 22:26 3,6 C 2,8 C 2,2 C 90 % 1032,9 hPa 0,0 l/m 0 min 0 min 0 W/m 6,4 km/h (2 Bft) 93,62 %
12.02.2019 22:28 3,6 C 2,8 C 2,2 C 90 % 1032,9 hPa 0,0 l/m 0 min 0 min 0 W/m 9,7 km/h (2 Bft) 89,36 %
12.02.2019 22:30 3,6 C 2,8 C 2,2 C 90 % 1032,9 hPa 0,0 l/m 0 min 0 min 0 W/m 12,9 km/h (3 Bft) 93,62 %
12.02.2019 22:32 3,6 C 2,8 C 2,2 C 90 % 1032,9 hPa 0,0 l/m 0 min 0 min 0 W/m 9,7 km/h (2 Bft) 84,78 %
12.02.2019 22:34 3,6 C 2,8 C 2,2 C 90 % 1032,9 hPa 0,0 l/m 0 min 0 min 0 W/m 6,4 km/h (2 Bft) 97,87 %
12.02.2019 22:36 3,6 C 2,8 C 2,2 C 90 % 1033,1 hPa 0,0 l/m 0 min 0 min 0 W/m 6,4 km/h (2 Bft) 89,36 %
12.02.2019 22:38 3,6 C 2,8 C 2,2 C 90 % 1033,0 hPa 0,0 l/m 0 min 0 min 0 W/m 16,1 km/h (3 Bft) 85,11 %
12.02.2019 22:40 3,5 C 2,8 C 2,2 C 90 % 1033,0 hPa 0,0 l/m 0 min 0 min 0 W/m 6,4 km/h (2 Bft) 89,36 %
12.02.2019 22:42 3,5 C 2,8 C 2,2 C 90 % 1033,1 hPa 0,0 l/m 0 min 0 min 0 W/m 9,7 km/h (2 Bft) 91,49 %
12.02.2019 22:44 3,5 C 2,8 C 2,2 C 90 % 1033,0 hPa 0,0 l/m 0 min 0 min 0 W/m 6,4 km/h (2 Bft) 100,00 %
12.02.2019 22:46 3,5 C 2,8 C 2,2 C 90 % 1033,1 hPa 0,0 l/m 0 min 0 min 0 W/m 9,7 km/h (2 Bft) 97,87 %
12.02.2019 22:48 3,5 C 2,8 C 2,2 C 90 % 1033,2 hPa 0,0 l/m 0 min 0 min 0 W/m 6,4 km/h (2 Bft) 97,87 %
12.02.2019 22:50 3,5 C 2,8 C 2,2 C 90 % 1033,2 hPa 0,0 l/m 0 min 0 min 0 W/m 9,7 km/h (2 Bft) 97,87 %
12.02.2019 22:52 3,5 C 2,8 C 2,2 C 90 % 1033,2 hPa 0,0 l/m 0 min 0 min 0 W/m 3,2 km/h (1 Bft) 95,74 %
12.02.2019 22:54 3,4 C 2,8 C 2,2 C 90 % 1033,2 hPa 0,0 l/m 0 min 0 min 0 W/m 12,9 km/h (3 Bft) 91,49 %
12.02.2019 22:56 3,4 C 2,8 C 2,2 C 90 % 1033,2 hPa 0,0 l/m 0 min 0 min 0 W/m 3,2 km/h (1 Bft) 76,09 %
12.02.2019 22:58 3,4 C 2,8 C 2,2 C 90 % 1033,3 hPa 0,0 l/m 0 min 0 min 0 W/m 6,4 km/h (2 Bft) 82,98 %
12.02.2019 23:00 3,4 C 2,8 C 2,2 C 90 % 1033,3 hPa 0,0 l/m 0 min 0 min 0 W/m 3,2 km/h (1 Bft) 78,72 %
12.02.2019 23:02 3,4 C 2,8 C 2,2 C 90 % 1033,2 hPa 0,0 l/m 0 min 0 min 0 W/m 6,4 km/h (2 Bft) 87,23 %
12.02.2019 23:04 3,4 C 2,8 C 2,2 C 90 % 1033,3 hPa 0,0 l/m 0 min 0 min 0 W/m 12,9 km/h (3 Bft) 78,72 %
12.02.2019 23:06 3,4 C 2,8 C 2,2 C 90 % 1033,3 hPa 0,0 l/m 0 min 0 min 0 W/m 12,9 km/h (3 Bft) 85,11 %
12.02.2019 23:08 3,3 C 2,8 C 2,2 C 90 % 1033,3 hPa 0,0 l/m 0 min 0 min 0 W/m 9,7 km/h (2 Bft) 78,26 %
12.02.2019 23:10 3,3 C 2,8 C 2,2 C 90 % 1033,3 hPa 0,0 l/m 0 min 0 min 0 W/m 9,7 km/h (2 Bft) 82,98 %
12.02.2019 23:12 3,3 C 2,8 C 2,2 C 90 % 1033,4 hPa 0,0 l/m 0 min 0 min 0 W/m 9,7 km/h (2 Bft) 85,11 %
12.02.2019 23:14 3,3 C 2,8 C 2,2 C 91 % 1033,3 hPa 0,0 l/m 0 min 0 min 0 W/m 12,9 km/h (3 Bft) 82,98 %
12.02.2019 23:16 3,3 C 2,8 C 2,2 C 91 % 1033,3 hPa 0,0 l/m 0 min 0 min 0 W/m 6,4 km/h (2 Bft) 89,36 %
12.02.2019 23:18 3,3 C 2,8 C 2,2 C 91 % 1033,4 hPa 0,0 l/m 0 min 0 min 0 W/m 6,4 km/h (2 Bft) 82,61 %
12.02.2019 23:20 3,4 C 2,8 C 2,2 C 91 % 1033,4 hPa 0,0 l/m 0 min 0 min 0 W/m 9,7 km/h (2 Bft) 72,34 %
12.02.2019 23:22 3,3 C 3,3 C 2,2 C 91 % 1033,5 hPa 0,0 l/m 0 min 0 min 0 W/m 16,1 km/h (3 Bft) 89,36 %
12.02.2019 23:24 3,4 C 3,3 C 2,2 C 91 % 1033,5 hPa 0,0 l/m 0 min 0 min 0 W/m 16,1 km/h (3 Bft) 80,85 %
12.02.2019 23:26 3,4 C 3,3 C 2,8 C 91 % 1033,4 hPa 0,0 l/m 0 min 0 min 0 W/m 16,1 km/h (3 Bft) 85,11 %
12.02.2019 23:28 3,4 C 3,3 C 2,2 C 91 % 1033,4 hPa 0,0 l/m 0 min 0 min 0 W/m 6,4 km/h (2 Bft) 89,36 %
12.02.2019 23:30 3,4 C 2,8 C 2,2 C 91 % 1033,4 hPa 0,0 l/m 0 min 0 min 0 W/m 6,4 km/h (2 Bft) 73,91 %
12.02.2019 23:32 3,4 C 2,8 C 2,2 C 91 % 1033,4 hPa 0,0 l/m 0 min 0 min 0 W/m 9,7 km/h (2 Bft) 76,60 %
12.02.2019 23:34 3,4 C 2,8 C 2,2 C 91 % 1033,4 hPa 0,0 l/m 0 min 0 min 0 W/m 6,4 km/h (2 Bft) 78,72 %
12.02.2019 23:36 3,4 C 2,8 C 2,2 C 91 % 1033,5 hPa 0,0 l/m 0 min 0 min 0 W/m 9,7 km/h (2 Bft) 78,72 %
12.02.2019 23:38 3,4 C 2,8 C 2,2 C 91 % 1033,5 hPa 0,0 l/m 0 min 0 min 0 W/m 9,7 km/h (2 Bft) 72,34 %
12.02.2019 23:40 3,4 C 2,8 C 2,2 C 91 % 1033,4 hPa 0,0 l/m 0 min 0 min 0 W/m 6,4 km/h (2 Bft) 87,23 %
12.02.2019 23:42 3,4 C 2,8 C 2,2 C 91 % 1033,4 hPa 0,0 l/m 0 min 0 min 0 W/m 9,7 km/h (2 Bft) 97,83 %
12.02.2019 23:44 3,4 C 2,8 C 2,2 C 91 % 1033,4 hPa 0,0 l/m 0 min 0 min 0 W/m 9,7 km/h (2 Bft) 74,47 %
12.02.2019 23:46 3,4 C 2,8 C 2,2 C 91 % 1033,4 hPa 0,0 l/m 0 min 0 min 0 W/m 12,9 km/h (3 Bft) 80,85 %
12.02.2019 23:48 3,4 C 2,8 C 2,2 C 91 % 1033,4 hPa 0,0 l/m 0 min 0 min 0 W/m 19,3 km/h (3 Bft) 72,34 %
12.02.2019 23:50 3,4 C 2,8 C 2,2 C 91 % 1033,3 hPa 0,0 l/m 0 min 0 min 0 W/m 12,9 km/h (3 Bft) 80,85 %
12.02.2019 23:52 3,4 C 2,8 C 2,2 C 91 % 1033,4 hPa 0,0 l/m 0 min 0 min 0 W/m 9,7 km/h (2 Bft) 89,36 %
12.02.2019 23:54 3,4 C 2,8 C 2,2 C 91 % 1033,3 hPa 0,0 l/m 0 min 0 min 0 W/m 9,7 km/h (2 Bft) 89,13 %
12.02.2019 23:56 3,3 C 2,8 C 2,2 C 91 % 1033,4 hPa 0,0 l/m 0 min 0 min 0 W/m 12,9 km/h (3 Bft) 80,85 %
12.02.2019 23:58 3,3 C 2,8 C 2,2 C 91 % 1033,3 hPa 0,0 l/m 0 min 0 min 0 W/m 12,9 km/h (3 Bft) 87,23 %
_ Min-Zeit 05:38 00:36 00:40 15:18 00:00 - - - - 00:36 12:52
Minimum _ 0,2 C -0,6 C -1,1 C 81 % 1028,3 hPa - - - - 0,0 km/h (0 Bft) 59,57 %
_ Max-Zeit 15:36 14:04 14:04 10:06 23:22 08:40 08:26 00:00 14:10 15:16 00:08
Maximum _ 8,0 C 12,8 C 7,8 C 98 % 1033,5 hPa 0,2 l/m 2 min 0 min 530 W/m 22,5 km/h
SO (4 Bft)
100,00 %
Durchschnitt _ 3,2 C 3,2 C 2,2 C 92 % 1031,4 hPa #0,2 l/m #3:40 h #0 min. 157 W/m 7,6 km/h (2 Bft) 95,44 %
© 2019 W. Hausmann